Wetterdaten: Freitag, 24.02.2023
Datum Zeit Temp. Aussen Temp. o. S. Temp +5cm Feuchte Auss Luftdruck Regen Sonnenschein Regendauer Solar Windben Empfang
24.02.2023 00:00 5,7 C 5,6 C 2,8 C 96 % 1016,1 hPa 0,0 l/m 0 min 0 min 0 W/m 9,7 km/h (2 Bft) 95,74 %
24.02.2023 00:02 5,7 C 5,6 C 2,8 C 96 % 1016,1 hPa 0,0 l/m 0 min 0 min 0 W/m 3,2 km/h (1 Bft) 20,00 %
24.02.2023 00:04 5,7 C 5,6 C 2,8 C 96 % 1016,1 hPa 0,0 l/m 0 min 0 min 0 W/m 6,4 km/h (2 Bft) 71,74 %
24.02.2023 00:07 5,7 C 5,6 C 2,8 C 96 % 1016,1 hPa 0,0 l/m 0 min 0 min 0 W/m 9,7 km/h (2 Bft) 97,56 %
24.02.2023 00:08 5,7 C 5,6 C 2,8 C 96 % 1016,1 hPa 0,0 l/m 0 min 0 min 0 W/m 3,2 km/h (1 Bft) 100,00 %
24.02.2023 00:12 5,7 C 5,6 C 2,8 C 96 % 1016,1 hPa 0,0 l/m 0 min 0 min 0 W/m 9,7 km/h (2 Bft) 91,30 %
24.02.2023 00:14 5,8 C 5,0 C 2,8 C 96 % 1016,1 hPa 0,0 l/m 0 min 0 min 0 W/m 12,9 km/h (3 Bft) 100,00 %
24.02.2023 00:16 5,8 C 5,6 C 2,8 C 96 % 1016,1 hPa 0,0 l/m 0 min 0 min 0 W/m 16,1 km/h (3 Bft) 97,87 %
24.02.2023 00:18 5,8 C 5,6 C 2,8 C 96 % 1016,0 hPa 0,0 l/m 0 min 0 min 0 W/m 12,9 km/h (3 Bft) 97,87 %
24.02.2023 00:20 5,8 C 5,0 C 2,8 C 96 % 1016,1 hPa 0,0 l/m 0 min 0 min 0 W/m 16,1 km/h (3 Bft) 100,00 %
24.02.2023 00:22 5,7 C 5,0 C 2,8 C 96 % 1016,1 hPa 0,0 l/m 0 min 0 min 0 W/m 16,1 km/h (3 Bft) 97,92 %
24.02.2023 00:24 5,7 C 5,0 C 2,8 C 96 % 1016,0 hPa 0,0 l/m 0 min 0 min 0 W/m 12,9 km/h (3 Bft) 97,87 %
24.02.2023 00:26 5,7 C 5,0 C 2,8 C 96 % 1016,0 hPa 0,0 l/m 0 min 0 min 0 W/m 6,4 km/h (2 Bft) 100,00 %
24.02.2023 00:28 5,7 C 5,0 C 2,8 C 96 % 1016,0 hPa 0,0 l/m 0 min 0 min 0 W/m 9,7 km/h (2 Bft) 100,00 %
24.02.2023 00:30 5,7 C 5,0 C 2,8 C 96 % 1016,0 hPa 0,0 l/m 0 min 0 min 0 W/m 12,9 km/h (3 Bft) 97,87 %
24.02.2023 00:32 5,7 C 5,0 C 2,8 C 96 % 1016,0 hPa 0,0 l/m 0 min 0 min 0 W/m 12,9 km/h (3 Bft) 97,87 %
24.02.2023 00:34 5,6 C 5,0 C 2,8 C 96 % 1016,0 hPa 0,0 l/m 0 min 0 min 0 W/m 19,3 km/h (3 Bft) 97,87 %
24.02.2023 00:36 5,6 C 5,0 C 2,8 C 96 % 1015,9 hPa 0,0 l/m 0 min 0 min 0 W/m 16,1 km/h (3 Bft) 95,65 %
24.02.2023 00:38 5,6 C 5,0 C 2,8 C 96 % 1015,9 hPa 0,0 l/m 0 min 0 min 0 W/m 19,3 km/h (3 Bft) 97,87 %
24.02.2023 00:40 5,6 C 5,0 C 2,8 C 96 % 1015,9 hPa 0,0 l/m 0 min 0 min 0 W/m 16,1 km/h (3 Bft) 100,00 %
24.02.2023 00:42 5,6 C 5,0 C 2,8 C 96 % 1015,9 hPa 0,0 l/m 0 min 0 min 0 W/m 16,1 km/h (3 Bft) 97,87 %
24.02.2023 00:44 5,5 C 5,0 C 2,8 C 95 % 1015,9 hPa 0,0 l/m 0 min 0 min 0 W/m 12,9 km/h (3 Bft) 100,00 %
24.02.2023 00:46 5,5 C 5,0 C 2,8 C 96 % 1015,8 hPa 0,0 l/m 0 min 0 min 0 W/m 3,2 km/h (1 Bft) 95,74 %
24.02.2023 00:48 5,4 C 5,0 C 2,8 C 96 % 1015,8 hPa 0,0 l/m 0 min 0 min 0 W/m 3,2 km/h (1 Bft) 95,65 %
24.02.2023 00:50 5,4 C 5,0 C 2,8 C 96 % 1015,8 hPa 0,0 l/m 0 min 0 min 0 W/m 9,7 km/h (2 Bft) 97,87 %
24.02.2023 00:52 5,4 C 5,0 C 2,8 C 96 % 1015,8 hPa 0,0 l/m 0 min 0 min 0 W/m 9,7 km/h (2 Bft) 95,74 %
24.02.2023 00:54 5,4 C 5,0 C 2,8 C 96 % 1015,8 hPa 0,0 l/m 0 min 0 min 0 W/m 9,7 km/h (2 Bft) 93,62 %
24.02.2023 00:56 5,4 C 5,0 C 2,8 C 96 % 1015,7 hPa 0,0 l/m 0 min 0 min 0 W/m 9,7 km/h (2 Bft) 95,74 %
24.02.2023 00:58 5,4 C 5,0 C 2,2 C 96 % 1015,6 hPa 0,0 l/m 0 min 0 min 0 W/m 6,4 km/h (2 Bft) 96,00 %
24.02.2023 01:00 5,3 C 5,0 C 2,8 C 95 % 1015,6 hPa 0,0 l/m 0 min 0 min 0 W/m 6,4 km/h (2 Bft) 93,48 %
24.02.2023 01:02 5,3 C 5,0 C 2,2 C 95 % 1015,5 hPa 0,0 l/m 0 min 0 min 0 W/m 9,7 km/h (2 Bft) 97,87 %
24.02.2023 01:04 5,3 C 5,0 C 2,2 C 95 % 1015,5 hPa 0,0 l/m 0 min 0 min 0 W/m 9,7 km/h (2 Bft) 95,74 %
24.02.2023 01:06 5,3 C 4,4 C 2,2 C 95 % 1015,5 hPa 0,0 l/m 0 min 0 min 0 W/m 6,4 km/h (2 Bft) 94,92 %
24.02.2023 01:08 5,3 C 4,4 C 2,2 C 95 % 1015,5 hPa 0,0 l/m 0 min 0 min 0 W/m 9,7 km/h (2 Bft) 97,14 %
24.02.2023 01:10 5,2 C 4,4 C 2,2 C 95 % 1015,4 hPa 0,0 l/m 0 min 0 min 0 W/m 12,9 km/h (3 Bft) 95,74 %
24.02.2023 01:12 5,2 C 4,4 C 2,2 C 95 % 1015,4 hPa 0,0 l/m 0 min 0 min 0 W/m 6,4 km/h (2 Bft) 95,74 %
24.02.2023 01:14 5,2 C 4,4 C 2,2 C 95 % 1015,5 hPa 0,0 l/m 0 min 0 min 0 W/m 6,4 km/h (2 Bft) 95,65 %
24.02.2023 01:16 5,2 C 4,4 C 2,2 C 95 % 1015,4 hPa 0,0 l/m 0 min 0 min 0 W/m 9,7 km/h (2 Bft) 98,11 %
24.02.2023 01:18 5,2 C 4,4 C 2,2 C 95 % 1015,4 hPa 0,0 l/m 0 min 0 min 0 W/m 6,4 km/h (2 Bft) 97,87 %
24.02.2023 01:23 5,1 C 4,4 C 2,2 C 95 % 1015,4 hPa 0,0 l/m 0 min 0 min 0 W/m 9,7 km/h (2 Bft) 96,92 %
24.02.2023 01:24 5,1 C 4,4 C 2,2 C 95 % 1015,4 hPa 0,0 l/m 0 min 0 min 0 W/m 9,7 km/h (2 Bft) 96,15 %
24.02.2023 01:26 5,1 C 4,4 C 2,2 C 95 % 1015,4 hPa 0,0 l/m 0 min 0 min 0 W/m 6,4 km/h (2 Bft) 100,00 %
24.02.2023 01:28 5,1 C 4,4 C 2,2 C 95 % 1015,4 hPa 0,0 l/m 0 min 0 min 0 W/m 9,7 km/h (2 Bft) 100,00 %
24.02.2023 01:30 5,1 C 4,4 C 2,2 C 95 % 1015,4 hPa 0,0 l/m 0 min 0 min 0 W/m 9,7 km/h (2 Bft) 100,00 %
24.02.2023 01:32 5,0 C 4,4 C 2,2 C 95 % 1015,3 hPa 0,0 l/m 0 min 0 min 0 W/m 6,4 km/h (2 Bft) 97,30 %
24.02.2023 01:34 5,0 C 4,4 C 2,2 C 95 % 1015,3 hPa 0,0 l/m 0 min 0 min 0 W/m 3,2 km/h (1 Bft) 97,87 %
24.02.2023 01:36 4,9 C 4,4 C 2,2 C 95 % 1015,2 hPa 0,0 l/m 0 min 0 min 0 W/m 9,7 km/h (2 Bft) 100,00 %
24.02.2023 01:38 4,9 C 4,4 C 2,2 C 95 % 1015,2 hPa 0,0 l/m 0 min 0 min 0 W/m 6,4 km/h (2 Bft) 100,00 %
24.02.2023 01:40 4,9 C 4,4 C 2,2 C 95 % 1015,2 hPa 0,0 l/m 0 min 0 min 0 W/m 9,7 km/h (2 Bft) 97,83 %
24.02.2023 01:42 4,9 C 4,4 C 2,2 C 95 % 1015,2 hPa 0,0 l/m 0 min 0 min 0 W/m 6,4 km/h (2 Bft) 100,00 %
24.02.2023 01:44 4,9 C 4,4 C 2,2 C 95 % 1015,1 hPa 0,0 l/m 0 min 0 min 0 W/m 0,0 km/h (0 Bft) 100,00 %
24.02.2023 01:46 4,9 C 4,4 C 2,2 C 95 % 1015,0 hPa 0,0 l/m 0 min 0 min 0 W/m 0,0 km/h (0 Bft) 100,00 %
24.02.2023 01:48 4,9 C 4,4 C 2,2 C 95 % 1015,0 hPa 0,0 l/m 0 min 0 min 0 W/m 6,4 km/h (2 Bft) 100,00 %
24.02.2023 01:50 4,9 C 4,4 C 2,2 C 95 % 1015,0 hPa 0,0 l/m 0 min 0 min 0 W/m 9,7 km/h (2 Bft) 97,87 %
24.02.2023 01:52 4,9 C 3,9 C 1,7 C 95 % 1015,0 hPa 0,0 l/m 0 min 0 min 0 W/m 3,2 km/h (1 Bft) 97,83 %
24.02.2023 01:54 4,9 C 3,9 C 1,7 C 95 % 1015,0 hPa 0,0 l/m 0 min 0 min 0 W/m 3,2 km/h (1 Bft) 100,00 %
24.02.2023 01:56 4,8 C 3,9 C 1,7 C 95 % 1015,0 hPa 0,0 l/m 0 min 0 min 0 W/m 3,2 km/h (1 Bft) 100,00 %
24.02.2023 01:58 4,8 C 3,9 C 1,7 C 95 % 1015,0 hPa 0,0 l/m 0 min 0 min 0 W/m 0,0 km/h (0 Bft) 100,00 %
24.02.2023 02:00 4,8 C 3,9 C 1,7 C 95 % 1015,0 hPa 0,0 l/m 0 min 0 min 0 W/m 6,4 km/h (2 Bft) 100,00 %
24.02.2023 02:02 4,8 C 3,9 C 1,7 C 95 % 1015,0 hPa 0,0 l/m 0 min 0 min 0 W/m 3,2 km/h (1 Bft) 100,00 %
24.02.2023 02:04 4,8 C 3,9 C 1,7 C 95 % 1015,0 hPa 0,0 l/m 0 min 0 min 0 W/m 3,2 km/h (1 Bft) 100,00 %
24.02.2023 02:06 4,8 C 3,9 C 1,7 C 94 % 1014,9 hPa 0,0 l/m 0 min 0 min 0 W/m 0,0 km/h (0 Bft) 100,00 %
24.02.2023 02:08 4,7 C 3,9 C 1,7 C 94 % 1014,9 hPa 0,0 l/m 0 min 0 min 0 W/m 0,0 km/h (0 Bft) 100,00 %
24.02.2023 02:10 4,7 C 3,9 C 1,7 C 94 % 1014,9 hPa 0,0 l/m 0 min 0 min 0 W/m 3,2 km/h (1 Bft) 100,00 %
24.02.2023 02:12 4,7 C 3,3 C 1,1 C 94 % 1014,9 hPa 0,0 l/m 0 min 0 min 0 W/m 9,7 km/h (2 Bft) 100,00 %
24.02.2023 02:14 4,6 C 3,3 C 1,1 C 94 % 1014,9 hPa 0,0 l/m 0 min 0 min 0 W/m 6,4 km/h (2 Bft) 100,00 %
24.02.2023 02:16 4,6 C 3,3 C 1,1 C 94 % 1014,9 hPa 0,0 l/m 0 min 0 min 0 W/m 3,2 km/h (1 Bft) 100,00 %
24.02.2023 02:18 4,6 C 3,3 C 1,1 C 94 % 1014,9 hPa 0,0 l/m 0 min 0 min 0 W/m 6,4 km/h (2 Bft) 100,00 %
24.02.2023 02:20 4,5 C 3,3 C 1,1 C 94 % 1014,9 hPa 0,0 l/m 0 min 0 min 0 W/m 6,4 km/h (2 Bft) 100,00 %
24.02.2023 02:22 4,4 C 3,3 C 1,1 C 94 % 1014,8 hPa 0,0 l/m 0 min 0 min 0 W/m 6,4 km/h (2 Bft) 97,87 %
24.02.2023 02:24 4,4 C 3,3 C 1,1 C 94 % 1014,8 hPa 0,0 l/m 0 min 0 min 0 W/m 9,7 km/h (2 Bft) 100,00 %
24.02.2023 02:26 4,4 C 3,3 C 1,1 C 94 % 1014,8 hPa 0,0 l/m 0 min 0 min 0 W/m 6,4 km/h (2 Bft) 100,00 %
24.02.2023 02:28 4,4 C 3,3 C 1,1 C 94 % 1014,8 hPa 0,0 l/m 0 min 0 min 0 W/m 6,4 km/h (2 Bft) 98,11 %
24.02.2023 02:30 4,3 C 3,3 C 1,1 C 94 % 1014,8 hPa 0,0 l/m 0 min 0 min 0 W/m 6,4 km/h (2 Bft) 97,87 %
24.02.2023 02:32 4,3 C 3,3 C 1,1 C 94 % 1014,8 hPa 0,0 l/m 0 min 0 min 0 W/m 3,2 km/h (1 Bft) 93,62 %
24.02.2023 02:34 4,3 C 3,3 C 1,1 C 94 % 1014,8 hPa 0,0 l/m 0 min 0 min 0 W/m 3,2 km/h (1 Bft) 95,74 %
24.02.2023 02:36 4,3 C 3,3 C 1,1 C 94 % 1014,8 hPa 0,0 l/m 0 min 0 min 0 W/m 6,4 km/h (2 Bft) 95,74 %
24.02.2023 02:38 4,3 C 3,3 C 1,1 C 94 % 1014,8 hPa 0,0 l/m 0 min 0 min 0 W/m 9,7 km/h (2 Bft) 93,62 %
24.02.2023 02:40 4,3 C 3,3 C 1,1 C 94 % 1014,8 hPa 0,0 l/m 0 min 0 min 0 W/m 9,7 km/h (2 Bft) 97,83 %
24.02.2023 02:42 4,3 C 3,3 C 1,1 C 95 % 1014,7 hPa 0,0 l/m 0 min 0 min 0 W/m 12,9 km/h (3 Bft) 95,12 %
24.02.2023 02:44 4,3 C 3,3 C 1,1 C 94 % 1014,7 hPa 0,0 l/m 0 min 0 min 0 W/m 6,4 km/h (2 Bft) 95,65 %
24.02.2023 02:46 4,3 C 3,9 C 1,1 C 94 % 1014,7 hPa 0,0 l/m 0 min 0 min 0 W/m 6,4 km/h (2 Bft) 93,62 %
24.02.2023 02:48 4,3 C 3,9 C 1,7 C 94 % 1014,6 hPa 0,0 l/m 0 min 0 min 0 W/m 6,4 km/h (2 Bft) 95,74 %
24.02.2023 02:50 4,3 C 3,9 C 1,1 C 94 % 1014,6 hPa 0,0 l/m 0 min 0 min 0 W/m 3,2 km/h (1 Bft) 95,74 %
24.02.2023 02:52 4,3 C 3,9 C 1,7 C 94 % 1014,6 hPa 0,0 l/m 0 min 0 min 0 W/m 9,7 km/h (2 Bft) 94,64 %
24.02.2023 02:54 4,3 C 3,9 C 1,7 C 95 % 1014,6 hPa 0,0 l/m 0 min 0 min 0 W/m 12,9 km/h (3 Bft) 93,48 %
24.02.2023 02:56 4,3 C 3,3 C 1,1 C 95 % 1014,6 hPa 0,0 l/m 0 min 0 min 0 W/m 9,7 km/h (2 Bft) 95,74 %
24.02.2023 02:58 4,2 C 3,3 C 1,1 C 95 % 1014,6 hPa 0,0 l/m 0 min 0 min 0 W/m 9,7 km/h (2 Bft) 97,87 %
24.02.2023 03:00 4,2 C 3,3 C 1,1 C 95 % 1014,6 hPa 0,0 l/m 0 min 0 min 0 W/m 6,4 km/h (2 Bft) 97,37 %
24.02.2023 03:02 4,2 C 3,3 C 1,1 C 95 % 1014,6 hPa 0,0 l/m 0 min 0 min 0 W/m 6,4 km/h (2 Bft) 95,74 %
24.02.2023 03:04 4,2 C 3,3 C 1,1 C 95 % 1014,6 hPa 0,0 l/m 0 min 0 min 0 W/m 6,4 km/h (2 Bft) 93,62 %
24.02.2023 03:06 4,2 C 3,3 C 1,1 C 95 % 1014,5 hPa 0,0 l/m 0 min 0 min 0 W/m 6,4 km/h (2 Bft) 95,74 %
24.02.2023 03:08 4,2 C 3,3 C 1,1 C 95 % 1014,5 hPa 0,0 l/m 0 min 0 min 0 W/m 9,7 km/h (2 Bft) 97,87 %
24.02.2023 03:10 4,2 C 3,3 C 1,1 C 95 % 1014,5 hPa 0,0 l/m 0 min 0 min 0 W/m 9,7 km/h (2 Bft) 94,55 %
24.02.2023 03:12 4,2 C 3,3 C 1,1 C 95 % 1014,5 hPa 0,0 l/m 0 min 0 min 0 W/m 6,4 km/h (2 Bft) 95,74 %
24.02.2023 03:14 4,2 C 3,3 C 1,1 C 95 % 1014,4 hPa 0,0 l/m 0 min 0 min 0 W/m 6,4 km/h (2 Bft) 93,62 %
24.02.2023 03:16 4,2 C 3,3 C 1,1 C 95 % 1014,4 hPa 0,0 l/m 0 min 0 min 0 W/m 6,4 km/h (2 Bft) 91,49 %
24.02.2023 03:18 4,2 C 3,3 C 1,1 C 95 % 1014,4 hPa 0,0 l/m 0 min 0 min 0 W/m 9,7 km/h (2 Bft) 93,62 %
24.02.2023 03:20 4,2 C 3,3 C 1,1 C 95 % 1014,3 hPa 0,0 l/m 0 min 0 min 0 W/m 6,4 km/h (2 Bft) 95,65 %
24.02.2023 03:22 4,2 C 3,3 C 1,1 C 95 % 1014,3 hPa 0,0 l/m 0 min 0 min 0 W/m 6,4 km/h (2 Bft) 91,49 %
24.02.2023 03:24 4,1 C 3,3 C 1,1 C 95 % 1014,2 hPa 0,0 l/m 0 min 0 min 0 W/m 3,2 km/h (1 Bft) 95,74 %
24.02.2023 03:26 4,1 C 3,3 C 1,1 C 95 % 1014,2 hPa 0,0 l/m 0 min 0 min 0 W/m 6,4 km/h (2 Bft) 95,74 %
24.02.2023 03:28 4,1 C 3,3 C 1,1 C 95 % 1014,2 hPa 0,0 l/m 0 min 0 min 0 W/m 6,4 km/h (2 Bft) 93,62 %
24.02.2023 03:30 4,1 C 3,3 C 1,1 C 95 % 1014,1 hPa 0,0 l/m 0 min 0 min 0 W/m 3,2 km/h (1 Bft) 94,59 %
24.02.2023 03:32 4,1 C 3,3 C 1,1 C 95 % 1014,1 hPa 0,0 l/m 0 min 0 min 0 W/m 3,2 km/h (1 Bft) 95,74 %
24.02.2023 03:34 4,1 C 3,3 C 1,1 C 95 % 1014,0 hPa 0,0 l/m 0 min 0 min 0 W/m 3,2 km/h (1 Bft) 97,87 %
24.02.2023 03:36 4,1 C 3,3 C 1,1 C 95 % 1013,9 hPa 0,0 l/m 0 min 0 min 0 W/m 0,0 km/h (0 Bft) 97,87 %
24.02.2023 03:38 4,1 C 3,3 C 1,1 C 95 % 1013,9 hPa 0,0 l/m 0 min 0 min 0 W/m 3,2 km/h (1 Bft) 95,74 %
24.02.2023 03:40 4,1 C 3,3 C 1,1 C 95 % 1013,9 hPa 0,0 l/m 0 min 0 min 0 W/m 3,2 km/h (1 Bft) 97,96 %
24.02.2023 03:42 4,1 C 3,3 C 1,7 C 95 % 1013,9 hPa 0,0 l/m 0 min 0 min 0 W/m 3,2 km/h (1 Bft) 95,74 %
24.02.2023 03:44 4,1 C 3,3 C 1,1 C 95 % 1013,9 hPa 0,0 l/m 0 min 0 min 0 W/m 3,2 km/h (1 Bft) 97,87 %
24.02.2023 03:46 4,1 C 3,3 C 1,1 C 95 % 1013,9 hPa 0,0 l/m 0 min 0 min 0 W/m 6,4 km/h (2 Bft) 97,87 %
24.02.2023 03:48 4,1 C 3,3 C 1,7 C 95 % 1013,7 hPa 0,0 l/m 0 min 0 min 0 W/m 6,4 km/h (2 Bft) 95,65 %
24.02.2023 03:50 4,0 C 3,3 C 1,1 C 95 % 1013,8 hPa 0,0 l/m 0 min 0 min 0 W/m 3,2 km/h (1 Bft) 97,87 %
24.02.2023 03:52 4,0 C 3,3 C 1,1 C 95 % 1013,7 hPa 0,0 l/m 0 min 0 min 0 W/m 0,0 km/h (0 Bft) 95,74 %
24.02.2023 03:54 4,0 C 3,3 C 1,1 C 95 % 1013,7 hPa 0,0 l/m 0 min 0 min 0 W/m 3,2 km/h (1 Bft) 100,00 %
24.02.2023 03:56 4,0 C 3,3 C 1,1 C 95 % 1013,7 hPa 0,0 l/m 0 min 0 min 0 W/m 0,0 km/h (0 Bft) 100,00 %
24.02.2023 03:58 4,0 C 3,3 C 1,1 C 95 % 1013,7 hPa 0,0 l/m 0 min 0 min 0 W/m 3,2 km/h (1 Bft) 100,00 %
24.02.2023 04:00 4,0 C 3,3 C 1,1 C 95 % 1013,7 hPa 0,0 l/m 0 min 0 min 0 W/m 0,0 km/h (0 Bft) 97,83 %
24.02.2023 04:02 4,0 C 3,3 C 1,1 C 95 % 1013,6 hPa 0,0 l/m 0 min 0 min 0 W/m 0,0 km/h (0 Bft) 100,00 %
24.02.2023 04:04 4,0 C 3,3 C 1,1 C 95 % 1013,6 hPa 0,0 l/m 0 min 0 min 0 W/m 3,2 km/h (1 Bft) 100,00 %
24.02.2023 04:06 4,0 C 3,3 C 1,1 C 95 % 1013,5 hPa 0,0 l/m 0 min 0 min 0 W/m 6,4 km/h (2 Bft) 100,00 %
24.02.2023 04:08 3,9 C 3,3 C 1,1 C 95 % 1013,5 hPa 0,0 l/m 0 min 0 min 0 W/m 6,4 km/h (2 Bft) 97,87 %
24.02.2023 04:10 3,9 C 3,3 C 1,1 C 95 % 1013,5 hPa 0,0 l/m 0 min 0 min 0 W/m 0,0 km/h (0 Bft) 100,00 %
24.02.2023 04:12 3,9 C 3,3 C 1,1 C 95 % 1013,5 hPa 0,0 l/m 0 min 0 min 0 W/m 0,0 km/h (0 Bft) 97,83 %
24.02.2023 04:14 3,9 C 3,3 C 1,1 C 95 % 1013,5 hPa 0,0 l/m 0 min 0 min 0 W/m 3,2 km/h (1 Bft) 97,87 %
24.02.2023 04:16 3,9 C 3,3 C 1,1 C 95 % 1013,5 hPa 0,0 l/m 0 min 0 min 0 W/m 0,0 km/h (0 Bft) 96,00 %
24.02.2023 04:18 3,9 C 3,3 C 1,1 C 95 % 1013,5 hPa 0,0 l/m 0 min 0 min 0 W/m 3,2 km/h (1 Bft) 97,87 %
24.02.2023 04:20 3,9 C 3,3 C 1,1 C 95 % 1013,5 hPa 0,0 l/m 0 min 0 min 0 W/m 0,0 km/h (0 Bft) 97,87 %
24.02.2023 04:22 3,8 C 3,3 C 1,1 C 95 % 1013,5 hPa 0,0 l/m 0 min 0 min 0 W/m 3,2 km/h (1 Bft) 97,87 %
24.02.2023 04:24 3,8 C 3,3 C 1,1 C 95 % 1013,4 hPa 0,0 l/m 0 min 0 min 0 W/m 0,0 km/h (0 Bft) 100,00 %
24.02.2023 04:26 3,8 C 3,3 C 1,1 C 95 % 1013,4 hPa 0,0 l/m 0 min 0 min 0 W/m 3,2 km/h (1 Bft) 91,49 %
24.02.2023 04:28 3,8 C 3,3 C 1,1 C 95 % 1013,4 hPa 0,0 l/m 0 min 0 min 0 W/m 3,2 km/h (1 Bft) 95,65 %
24.02.2023 04:30 3,8 C 3,3 C 1,1 C 95 % 1013,4 hPa 0,0 l/m 0 min 0 min 0 W/m 3,2 km/h (1 Bft) 97,87 %
24.02.2023 04:32 3,8 C 3,3 C 1,1 C 95 % 1013,4 hPa 0,0 l/m 0 min 0 min 0 W/m 0,0 km/h (0 Bft) 97,87 %
24.02.2023 04:34 3,8 C 3,3 C 1,1 C 95 % 1013,4 hPa 0,0 l/m 0 min 0 min 0 W/m 0,0 km/h (0 Bft) 97,87 %
24.02.2023 04:36 3,8 C 3,3 C 1,1 C 95 % 1013,4 hPa 0,0 l/m 0 min 0 min 0 W/m 3,2 km/h (1 Bft) 97,87 %
24.02.2023 04:38 3,8 C 3,3 C 1,1 C 95 % 1013,3 hPa 0,0 l/m 0 min 0 min 0 W/m 0,0 km/h (0 Bft) 97,87 %
24.02.2023 04:40 3,8 C 3,3 C 1,1 C 95 % 1013,3 hPa 0,0 l/m 0 min 0 min 0 W/m 3,2 km/h (1 Bft) 95,65 %
24.02.2023 04:42 3,8 C 3,3 C 1,1 C 95 % 1013,3 hPa 0,0 l/m 0 min 0 min 0 W/m 0,0 km/h (0 Bft) 100,00 %
24.02.2023 04:44 3,8 C 3,3 C 1,1 C 95 % 1013,3 hPa 0,0 l/m 0 min 0 min 0 W/m 0,0 km/h (0 Bft) 100,00 %
24.02.2023 04:46 3,7 C 3,3 C 1,1 C 95 % 1013,3 hPa 0,0 l/m 0 min 0 min 0 W/m 0,0 km/h (0 Bft) 100,00 %
24.02.2023 04:48 3,8 C 3,3 C 1,1 C 95 % 1013,4 hPa 0,0 l/m 0 min 0 min 0 W/m 3,2 km/h (1 Bft) 100,00 %
24.02.2023 04:50 3,8 C 3,3 C 1,1 C 95 % 1013,4 hPa 0,0 l/m 0 min 0 min 0 W/m 0,0 km/h (0 Bft) 100,00 %
24.02.2023 04:52 3,8 C 3,3 C 1,1 C 95 % 1013,3 hPa 0,0 l/m 0 min 0 min 0 W/m 3,2 km/h (1 Bft) 100,00 %
24.02.2023 04:54 3,8 C 3,3 C 1,1 C 95 % 1013,3 hPa 0,0 l/m 0 min 0 min 0 W/m 3,2 km/h (1 Bft) 100,00 %
24.02.2023 04:56 3,8 C 3,3 C 1,1 C 95 % 1013,3 hPa 0,0 l/m 0 min 0 min 0 W/m 3,2 km/h (1 Bft) 97,87 %
24.02.2023 04:58 3,8 C 3,3 C 1,1 C 95 % 1013,2 hPa 0,0 l/m 0 min 0 min 0 W/m 3,2 km/h (1 Bft) 97,87 %
24.02.2023 05:00 3,8 C 3,3 C 1,1 C 95 % 1013,2 hPa 0,0 l/m 0 min 0 min 0 W/m 0,0 km/h (0 Bft) 100,00 %
24.02.2023 05:02 3,8 C 3,3 C 1,1 C 95 % 1013,2 hPa 0,0 l/m 0 min 0 min 0 W/m 3,2 km/h (1 Bft) 100,00 %
24.02.2023 05:04 3,8 C 3,3 C 1,1 C 95 % 1013,2 hPa 0,0 l/m 0 min 0 min 0 W/m 0,0 km/h (0 Bft) 100,00 %
24.02.2023 05:06 3,8 C 3,3 C 1,1 C 95 % 1013,1 hPa 0,0 l/m 0 min 0 min 0 W/m 0,0 km/h (0 Bft) 100,00 %
24.02.2023 05:08 3,7 C 3,3 C 1,1 C 95 % 1013,1 hPa 0,0 l/m 0 min 0 min 0 W/m 3,2 km/h (1 Bft) 100,00 %
24.02.2023 05:10 3,7 C 3,3 C 1,1 C 95 % 1013,1 hPa 0,0 l/m 0 min 0 min 0 W/m 3,2 km/h (1 Bft) 100,00 %
24.02.2023 05:12 3,8 C 3,3 C 1,1 C 95 % 1013,1 hPa 0,0 l/m 0 min 0 min 0 W/m 3,2 km/h (1 Bft) 100,00 %
24.02.2023 05:14 3,8 C 3,3 C 1,1 C 95 % 1013,1 hPa 0,0 l/m 0 min 0 min 0 W/m 0,0 km/h (0 Bft) 100,00 %
24.02.2023 05:16 3,7 C 3,3 C 1,1 C 95 % 1013,1 hPa 0,0 l/m 0 min 0 min 0 W/m 0,0 km/h (0 Bft) 97,87 %
24.02.2023 05:18 3,7 C 3,3 C 1,1 C 95 % 1013,0 hPa 0,0 l/m 0 min 0 min 0 W/m 3,2 km/h (1 Bft) 100,00 %
24.02.2023 05:20 3,7 C 3,3 C 1,1 C 95 % 1013,1 hPa 0,0 l/m 0 min 0 min 0 W/m 3,2 km/h (1 Bft) 97,87 %
24.02.2023 05:22 3,7 C 3,3 C 1,1 C 95 % 1013,1 hPa 0,0 l/m 0 min 0 min 0 W/m 0,0 km/h (0 Bft) 100,00 %
24.02.2023 05:24 3,7 C 3,3 C 1,1 C 95 % 1013,1 hPa 0,0 l/m 0 min 0 min 0 W/m 3,2 km/h (1 Bft) 100,00 %
24.02.2023 05:26 3,7 C 3,3 C 1,1 C 95 % 1013,1 hPa 0,0 l/m 0 min 0 min 0 W/m 3,2 km/h (1 Bft) 100,00 %
24.02.2023 05:28 3,7 C 3,3 C 1,1 C 95 % 1013,0 hPa 0,0 l/m 0 min 0 min 0 W/m 0,0 km/h (0 Bft) 100,00 %
24.02.2023 05:30 3,7 C 3,3 C 1,1 C 95 % 1013,1 hPa 0,0 l/m 0 min 0 min 0 W/m 0,0 km/h (0 Bft) 97,83 %
24.02.2023 05:32 3,7 C 3,3 C 1,1 C 95 % 1013,1 hPa 0,0 l/m 0 min 0 min 0 W/m 0,0 km/h (0 Bft) 100,00 %
24.02.2023 05:34 3,7 C 3,3 C 1,1 C 95 % 1013,0 hPa 0,0 l/m 0 min 0 min 0 W/m 0,0 km/h (0 Bft) 100,00 %
24.02.2023 05:36 3,7 C 3,3 C 1,1 C 95 % 1013,0 hPa 0,0 l/m 0 min 0 min 0 W/m 0,0 km/h (0 Bft) 97,87 %
24.02.2023 05:38 3,7 C 3,3 C 1,1 C 95 % 1012,9 hPa 0,0 l/m 0 min 0 min 0 W/m 0,0 km/h (0 Bft) 95,74 %
24.02.2023 05:40 3,7 C 3,3 C 1,1 C 95 % 1013,0 hPa 0,0 l/m 0 min 0 min 0 W/m 0,0 km/h (0 Bft) 97,87 %
24.02.2023 05:42 3,7 C 3,3 C 1,1 C 95 % 1013,0 hPa 0,0 l/m 0 min 0 min 0 W/m 0,0 km/h (0 Bft) 97,87 %
24.02.2023 05:44 3,7 C 3,3 C 1,1 C 95 % 1012,9 hPa 0,0 l/m 0 min 0 min 0 W/m 0,0 km/h (0 Bft) 97,83 %
24.02.2023 05:46 3,7 C 3,3 C 1,1 C 95 % 1012,9 hPa 0,0 l/m 0 min 0 min 0 W/m 0,0 km/h (0 Bft) 93,62 %
24.02.2023 05:48 3,7 C 3,3 C 1,1 C 95 % 1012,9 hPa 0,0 l/m 0 min 0 min 0 W/m 0,0 km/h (0 Bft) 97,87 %
24.02.2023 05:50 3,7 C 3,3 C 1,1 C 95 % 1012,8 hPa 0,0 l/m 0 min 0 min 0 W/m 0,0 km/h (0 Bft) 97,87 %
24.02.2023 05:52 3,7 C 3,3 C 1,1 C 95 % 1012,8 hPa 0,0 l/m 0 min 0 min 0 W/m 0,0 km/h (0 Bft) 97,87 %
24.02.2023 05:54 3,7 C 3,3 C 1,1 C 95 % 1012,8 hPa 0,0 l/m 0 min 0 min 0 W/m 0,0 km/h (0 Bft) 93,62 %
24.02.2023 05:56 3,7 C 3,3 C 1,1 C 95 % 1012,8 hPa 0,0 l/m 0 min 0 min 0 W/m 0,0 km/h (0 Bft) 95,65 %
24.02.2023 05:58 3,7 C 3,3 C 1,1 C 95 % 1012,7 hPa 0,0 l/m 0 min 0 min 0 W/m 0,0 km/h (0 Bft) 95,74 %
24.02.2023 06:00 3,7 C 3,3 C 1,1 C 95 % 1012,7 hPa 0,0 l/m 0 min 0 min 0 W/m 0,0 km/h (0 Bft) 91,49 %
24.02.2023 06:02 3,7 C 3,3 C 1,1 C 95 % 1012,7 hPa 0,0 l/m 0 min 0 min 0 W/m 0,0 km/h (0 Bft) 93,62 %
24.02.2023 06:04 3,7 C 3,3 C 1,1 C 95 % 1012,7 hPa 0,0 l/m 0 min 0 min 0 W/m 0,0 km/h (0 Bft) 94,00 %
24.02.2023 06:08 3,7 C 3,3 C 1,1 C 95 % 1012,7 hPa 0,0 l/m 0 min 0 min 0 W/m 0,0 km/h (0 Bft) 93,75 %
24.02.2023 06:10 3,7 C 3,3 C 1,1 C 95 % 1012,6 hPa 0,0 l/m 0 min 0 min 0 W/m 0,0 km/h (0 Bft) 91,43 %
24.02.2023 06:12 3,7 C 3,3 C 1,1 C 95 % 1012,7 hPa 0,0 l/m 0 min 0 min 0 W/m 0,0 km/h (0 Bft) 93,62 %
24.02.2023 06:14 3,7 C 3,3 C 1,1 C 95 % 1012,6 hPa 0,0 l/m 0 min 0 min 0 W/m 0,0 km/h (0 Bft) 92,45 %
24.02.2023 06:16 3,7 C 3,3 C 1,1 C 95 % 1012,6 hPa 0,0 l/m 0 min 0 min 0 W/m 0,0 km/h (0 Bft) 95,74 %
24.02.2023 06:18 3,7 C 3,3 C 1,1 C 95 % 1012,6 hPa 0,0 l/m 0 min 0 min 0 W/m 0,0 km/h (0 Bft) 95,83 %
24.02.2023 06:20 3,7 C 3,3 C 1,1 C 95 % 1012,5 hPa 0,0 l/m 0 min 0 min 0 W/m 0,0 km/h (0 Bft) 95,83 %
24.02.2023 06:22 3,7 C 3,3 C 1,1 C 95 % 1012,6 hPa 0,0 l/m 0 min 0 min 0 W/m 0,0 km/h (0 Bft) 95,74 %
24.02.2023 06:24 3,7 C 3,3 C 1,1 C 95 % 1012,5 hPa 0,0 l/m 0 min 0 min 0 W/m 0,0 km/h (0 Bft) 95,74 %
24.02.2023 06:26 3,7 C 3,3 C 1,1 C 95 % 1012,5 hPa 0,0 l/m 0 min 0 min 0 W/m 0,0 km/h (0 Bft) 97,87 %
24.02.2023 06:28 3,7 C 3,3 C 1,1 C 95 % 1012,5 hPa 0,0 l/m 0 min 0 min 0 W/m 0,0 km/h (0 Bft) 100,00 %
24.02.2023 06:30 3,7 C 3,3 C 1,1 C 95 % 1012,5 hPa 0,0 l/m 0 min 0 min 0 W/m 0,0 km/h (0 Bft) 97,37 %
24.02.2023 06:32 3,7 C 3,3 C 1,1 C 95 % 1012,4 hPa 0,0 l/m 0 min 0 min 0 W/m 0,0 km/h (0 Bft) 97,87 %
24.02.2023 06:34 3,7 C 3,3 C 1,1 C 95 % 1012,5 hPa 0,0 l/m 0 min 0 min 0 W/m 0,0 km/h (0 Bft) 95,74 %
24.02.2023 06:36 3,7 C 3,3 C 1,1 C 95 % 1012,5 hPa 0,0 l/m 0 min 0 min 0 W/m 0,0 km/h (0 Bft) 93,48 %
24.02.2023 06:38 3,7 C 3,3 C 1,1 C 95 % 1012,4 hPa 0,0 l/m 0 min 0 min 0 W/m 0,0 km/h (0 Bft) 97,87 %
24.02.2023 06:40 3,7 C 3,3 C 1,1 C 95 % 1012,4 hPa 0,0 l/m 0 min 0 min 0 W/m 0,0 km/h (0 Bft) 97,87 %
24.02.2023 06:42 3,7 C 3,3 C 1,1 C 95 % 1012,4 hPa 0,0 l/m 0 min 0 min 0 W/m 0,0 km/h (0 Bft) 97,87 %
24.02.2023 06:44 3,7 C 3,3 C 1,1 C 95 % 1012,4 hPa 0,0 l/m 0 min 0 min 0 W/m 0,0 km/h (0 Bft) 97,87 %
24.02.2023 06:46 3,7 C 3,3 C 1,1 C 95 % 1012,3 hPa 0,0 l/m 0 min 0 min 0 W/m 0,0 km/h (0 Bft) 95,74 %
24.02.2023 06:48 3,7 C 3,3 C 1,1 C 95 % 1012,3 hPa 0,0 l/m 0 min 0 min 0 W/m 0,0 km/h (0 Bft) 97,83 %
24.02.2023 06:50 3,7 C 3,3 C 1,1 C 95 % 1012,3 hPa 0,0 l/m 0 min 0 min 0 W/m 0,0 km/h (0 Bft) 95,74 %
24.02.2023 06:52 3,7 C 3,3 C 1,1 C 95 % 1012,3 hPa 0,0 l/m 0 min 0 min 0 W/m 0,0 km/h (0 Bft) 97,87 %
24.02.2023 06:54 3,8 C 3,3 C 1,1 C 95 % 1012,3 hPa 0,0 l/m 0 min 0 min 0 W/m 0,0 km/h (0 Bft) 97,87 %
24.02.2023 06:56 3,7 C 3,3 C 1,1 C 95 % 1012,3 hPa 0,0 l/m 0 min 0 min 0 W/m 0,0 km/h (0 Bft) 74,47 %
24.02.2023 06:58 3,8 C 3,3 C 1,1 C 95 % 1012,3 hPa 0,0 l/m 0 min 0 min 0 W/m 0,0 km/h (0 Bft) 76,92 %
24.02.2023 07:00 3,8 C 3,3 C 1,1 C 95 % 1012,2 hPa 0,0 l/m 0 min 0 min 0 W/m 0,0 km/h (0 Bft) 100,00 %
24.02.2023 07:02 3,8 C 3,3 C 1,1 C 95 % 1012,2 hPa 0,0 l/m 0 min 0 min 0 W/m 0,0 km/h (0 Bft) 97,87 %
24.02.2023 07:04 3,8 C 3,3 C 1,1 C 95 % 1012,1 hPa 0,0 l/m 0 min 0 min 0 W/m 0,0 km/h (0 Bft) 100,00 %
24.02.2023 07:06 3,8 C 3,3 C 1,1 C 95 % 1012,1 hPa 0,0 l/m 0 min 0 min 0 W/m 0,0 km/h (0 Bft) 96,61 %
24.02.2023 07:08 3,7 C 3,3 C 1,1 C 95 % 1012,1 hPa 0,0 l/m 0 min 0 min 0 W/m 0,0 km/h (0 Bft) 100,00 %
24.02.2023 07:10 3,7 C 3,3 C 1,1 C 95 % 1012,0 hPa 0,0 l/m 0 min 0 min 0 W/m 0,0 km/h (0 Bft) 100,00 %
24.02.2023 07:12 3,8 C 3,3 C 1,1 C 95 % 1012,0 hPa 0,0 l/m 0 min 0 min 0 W/m 0,0 km/h (0 Bft) 97,87 %
24.02.2023 07:14 3,7 C 3,3 C 1,1 C 95 % 1012,0 hPa 0,0 l/m 0 min 0 min 0 W/m 0,0 km/h (0 Bft) 97,83 %
24.02.2023 07:16 3,7 C 3,3 C 1,1 C 95 % 1012,0 hPa 0,0 l/m 0 min 0 min 0 W/m 0,0 km/h (0 Bft) 100,00 %
24.02.2023 07:18 3,7 C 3,3 C 1,1 C 94 % 1011,9 hPa 0,0 l/m 0 min 0 min 0 W/m 6,4 km/h (2 Bft) 100,00 %
24.02.2023 07:20 3,7 C 3,3 C 1,1 C 94 % 1011,9 hPa 0,0 l/m 0 min 0 min 0 W/m 3,2 km/h (1 Bft) 100,00 %
24.02.2023 07:22 3,7 C 3,3 C 1,1 C 94 % 1011,9 hPa 0,0 l/m 0 min 0 min 0 W/m 3,2 km/h (1 Bft) 100,00 %
24.02.2023 07:24 3,7 C 3,3 C 1,1 C 94 % 1011,9 hPa 0,0 l/m 0 min 0 min 0 W/m 3,2 km/h (1 Bft) 97,87 %
24.02.2023 07:26 3,7 C 3,3 C 1,1 C 94 % 1011,8 hPa 0,0 l/m 0 min 0 min 0 W/m 6,4 km/h (2 Bft) 97,83 %
24.02.2023 07:28 3,7 C 3,3 C 1,1 C 94 % 1011,8 hPa 0,0 l/m 0 min 0 min 4 W/m 3,2 km/h (1 Bft) 100,00 %
24.02.2023 07:30 3,7 C 3,3 C 1,1 C 94 % 1011,8 hPa 0,0 l/m 0 min 0 min 5 W/m 3,2 km/h (1 Bft) 100,00 %
24.02.2023 07:32 3,7 C 3,3 C 1,1 C 94 % 1011,8 hPa 0,0 l/m 0 min 0 min 4 W/m 3,2 km/h (1 Bft) 95,74 %
24.02.2023 07:34 3,7 C 3,3 C 1,1 C 94 % 1011,8 hPa 0,0 l/m 0 min 0 min 0 W/m 3,2 km/h (1 Bft) 97,87 %
24.02.2023 07:36 3,7 C 3,3 C 1,1 C 94 % 1011,7 hPa 0,0 l/m 0 min 0 min 2 W/m 3,2 km/h (1 Bft) 100,00 %
24.02.2023 07:38 3,7 C 3,3 C 1,1 C 94 % 1011,8 hPa 0,0 l/m 0 min 0 min 5 W/m 3,2 km/h (1 Bft) 97,87 %
24.02.2023 07:40 3,7 C 3,3 C 1,1 C 94 % 1011,8 hPa 0,0 l/m 0 min 0 min 5 W/m 3,2 km/h (1 Bft) 97,83 %
24.02.2023 07:42 3,7 C 3,3 C 1,1 C 94 % 1011,8 hPa 0,0 l/m 0 min 0 min 6 W/m 3,2 km/h (1 Bft) 93,62 %
24.02.2023 07:44 3,7 C 3,3 C 1,7 C 94 % 1011,8 hPa 0,0 l/m 0 min 0 min 7 W/m 3,2 km/h (1 Bft) 97,87 %
24.02.2023 07:46 3,7 C 3,3 C 1,1 C 94 % 1011,9 hPa 0,0 l/m 0 min 0 min 7 W/m 3,2 km/h (1 Bft) 97,87 %
24.02.2023 07:48 3,7 C 3,3 C 1,1 C 94 % 1011,8 hPa 0,0 l/m 0 min 0 min 8 W/m 3,2 km/h (1 Bft) 97,87 %
24.02.2023 07:50 3,7 C 3,3 C 1,1 C 94 % 1011,7 hPa 0,0 l/m 0 min 0 min 10 W/m 3,2 km/h (1 Bft) 97,87 %
24.02.2023 07:52 3,7 C 3,3 C 1,1 C 94 % 1011,7 hPa 0,0 l/m 0 min 0 min 11 W/m 3,2 km/h (1 Bft) 97,87 %
24.02.2023 07:54 3,7 C 3,3 C 1,1 C 93 % 1011,6 hPa 0,0 l/m 0 min 0 min 11 W/m 3,2 km/h (1 Bft) 97,83 %
24.02.2023 07:56 3,7 C 3,3 C 1,1 C 93 % 1011,6 hPa 0,0 l/m 0 min 0 min 12 W/m 3,2 km/h (1 Bft) 97,87 %
24.02.2023 07:58 3,7 C 3,3 C 1,1 C 93 % 1011,6 hPa 0,0 l/m 0 min 0 min 14 W/m 3,2 km/h (1 Bft) 95,74 %
24.02.2023 08:00 3,7 C 3,3 C 1,1 C 93 % 1011,6 hPa 0,0 l/m 0 min 0 min 15 W/m 6,4 km/h (2 Bft) 93,62 %
24.02.2023 08:02 3,7 C 3,3 C 1,1 C 93 % 1011,6 hPa 0,0 l/m 0 min 0 min 16 W/m 3,2 km/h (1 Bft) 93,62 %
24.02.2023 08:04 3,7 C 3,3 C 1,1 C 93 % 1011,6 hPa 0,0 l/m 0 min 0 min 18 W/m 3,2 km/h (1 Bft) 95,74 %
24.02.2023 08:06 3,7 C 3,3 C 1,1 C 92 % 1011,6 hPa 0,0 l/m 0 min 0 min 20 W/m 3,2 km/h (1 Bft) 94,83 %
24.02.2023 08:08 3,7 C 3,3 C 1,1 C 92 % 1011,5 hPa 0,0 l/m 0 min 0 min 24 W/m 3,2 km/h (1 Bft) 97,14 %
24.02.2023 08:10 3,7 C 3,3 C 1,1 C 92 % 1011,5 hPa 0,0 l/m 0 min 0 min 25 W/m 3,2 km/h (1 Bft) 93,62 %
24.02.2023 08:12 3,7 C 3,3 C 1,1 C 92 % 1011,5 hPa 0,0 l/m 0 min 0 min 26 W/m 3,2 km/h (1 Bft) 97,87 %
24.02.2023 08:14 3,7 C 3,3 C 1,1 C 92 % 1011,5 hPa 0,0 l/m 0 min 0 min 27 W/m 3,2 km/h (1 Bft) 95,74 %
24.02.2023 08:16 3,7 C 3,3 C 1,1 C 92 % 1011,6 hPa 0,0 l/m 0 min 0 min 28 W/m 6,4 km/h (2 Bft) 100,00 %
24.02.2023 08:18 3,7 C 3,3 C 1,1 C 92 % 1011,5 hPa 0,0 l/m 0 min 0 min 30 W/m 6,4 km/h (2 Bft) 100,00 %
24.02.2023 08:20 3,7 C 3,3 C 1,1 C 92 % 1011,5 hPa 0,0 l/m 0 min 0 min 30 W/m 6,4 km/h (2 Bft) 100,00 %
24.02.2023 08:22 3,8 C 3,3 C 1,1 C 92 % 1011,5 hPa 0,0 l/m 0 min 0 min 31 W/m 12,9 km/h (3 Bft) 95,74 %
24.02.2023 08:24 3,7 C 3,3 C 1,1 C 92 % 1011,5 hPa 0,0 l/m 0 min 0 min 32 W/m 3,2 km/h (1 Bft) 97,87 %
24.02.2023 08:26 3,8 C 3,3 C 1,1 C 92 % 1011,5 hPa 0,0 l/m 0 min 0 min 32 W/m 6,4 km/h (2 Bft) 97,87 %
24.02.2023 08:28 3,8 C 3,9 C 1,1 C 92 % 1011,5 hPa 0,0 l/m 0 min 0 min 33 W/m 6,4 km/h (2 Bft) 97,87 %
24.02.2023 08:30 3,8 C 3,9 C 1,1 C 92 % 1011,5 hPa 0,0 l/m 0 min 0 min 32 W/m 6,4 km/h (2 Bft) 97,87 %
24.02.2023 08:32 3,8 C 3,9 C 1,1 C 92 % 1011,5 hPa 0,0 l/m 0 min 0 min 31 W/m 9,7 km/h (2 Bft) 95,65 %
24.02.2023 08:34 3,8 C 3,9 C 1,7 C 92 % 1011,5 hPa 0,0 l/m 0 min 0 min 32 W/m 3,2 km/h (1 Bft) 97,87 %
24.02.2023 08:36 3,8 C 3,9 C 1,1 C 92 % 1011,4 hPa 0,0 l/m 0 min 0 min 32 W/m 6,4 km/h (2 Bft) 97,87 %
24.02.2023 08:38 3,8 C 3,9 C 1,1 C 92 % 1011,4 hPa 0,0 l/m 0 min 0 min 33 W/m 12,9 km/h (3 Bft) 97,87 %
24.02.2023 08:40 3,9 C 3,9 C 1,7 C 92 % 1011,3 hPa 0,0 l/m 0 min 0 min 34 W/m 3,2 km/h (1 Bft) 100,00 %
24.02.2023 08:42 3,9 C 3,9 C 1,7 C 92 % 1011,3 hPa 0,0 l/m 0 min 0 min 39 W/m 6,4 km/h (2 Bft) 100,00 %
24.02.2023 08:44 3,9 C 3,9 C 1,7 C 92 % 1011,3 hPa 0,0 l/m 0 min 0 min 44 W/m 6,4 km/h (2 Bft) 100,00 %
24.02.2023 08:46 3,9 C 3,9 C 1,7 C 91 % 1011,2 hPa 0,0 l/m 0 min 0 min 51 W/m 6,4 km/h (2 Bft) 100,00 %
24.02.2023 08:48 3,9 C 3,9 C 1,7 C 91 % 1011,2 hPa 0,0 l/m 0 min 0 min 59 W/m 6,4 km/h (2 Bft) 100,00 %
24.02.2023 08:50 3,9 C 3,9 C 1,7 C 91 % 1011,1 hPa 0,0 l/m 0 min 0 min 65 W/m 9,7 km/h (2 Bft) 100,00 %
24.02.2023 08:52 4,0 C 3,9 C 1,7 C 91 % 1011,1 hPa 0,0 l/m 0 min 0 min 71 W/m 6,4 km/h (2 Bft) 97,87 %
24.02.2023 08:54 4,0 C 3,9 C 1,7 C 91 % 1011,0 hPa 0,0 l/m 0 min 0 min 72 W/m 3,2 km/h (1 Bft) 100,00 %
24.02.2023 08:56 4,0 C 3,9 C 1,7 C 91 % 1011,0 hPa 0,0 l/m 0 min 0 min 71 W/m 12,9 km/h (3 Bft) 100,00 %
24.02.2023 08:58 4,0 C 3,9 C 1,7 C 91 % 1011,0 hPa 0,0 l/m 0 min 0 min 68 W/m 6,4 km/h (2 Bft) 97,83 %
24.02.2023 09:00 4,0 C 3,9 C 1,7 C 91 % 1011,0 hPa 0,0 l/m 0 min 0 min 66 W/m 6,4 km/h (2 Bft) 100,00 %
24.02.2023 09:02 4,0 C 3,9 C 1,7 C 91 % 1011,0 hPa 0,0 l/m 0 min 0 min 64 W/m 16,1 km/h (3 Bft) 100,00 %
24.02.2023 09:04 4,0 C 3,9 C 1,7 C 91 % 1010,9 hPa 0,0 l/m 0 min 0 min 62 W/m 6,4 km/h (2 Bft) 100,00 %
24.02.2023 09:06 4,0 C 3,9 C 1,7 C 90 % 1011,0 hPa 0,0 l/m 0 min 0 min 62 W/m 9,7 km/h (2 Bft) 98,28 %
24.02.2023 09:08 4,0 C 3,9 C 1,7 C 90 % 1010,9 hPa 0,0 l/m 0 min 0 min 64 W/m 9,7 km/h (2 Bft) 97,62 %
24.02.2023 09:10 4,0 C 3,9 C 1,7 C 90 % 1011,0 hPa 0,0 l/m 0 min 0 min 68 W/m 12,9 km/h (3 Bft) 100,00 %
24.02.2023 09:12 4,1 C 3,9 C 1,7 C 90 % 1010,9 hPa 0,0 l/m 0 min 0 min 73 W/m 12,9 km/h (3 Bft) 100,00 %
24.02.2023 09:14 4,1 C 3,9 C 1,7 C 90 % 1010,9 hPa 0,0 l/m 0 min 0 min 76 W/m 9,7 km/h (2 Bft) 97,87 %
24.02.2023 09:16 4,1 C 4,4 C 1,7 C 90 % 1010,9 hPa 0,0 l/m 0 min 0 min 72 W/m 9,7 km/h (2 Bft) 100,00 %
24.02.2023 09:18 4,1 C 4,4 C 1,7 C 90 % 1010,9 hPa 0,0 l/m 0 min 0 min 72 W/m 9,7 km/h (2 Bft) 97,87 %
24.02.2023 09:20 4,1 C 4,4 C 1,7 C 90 % 1010,8 hPa 0,0 l/m 0 min 0 min 72 W/m 12,9 km/h (3 Bft) 97,83 %
24.02.2023 09:22 4,1 C 4,4 C 1,7 C 90 % 1010,8 hPa 0,0 l/m 0 min 0 min 74 W/m 6,4 km/h (2 Bft) 95,74 %
24.02.2023 09:24 4,1 C 3,9 C 1,7 C 89 % 1010,8 hPa 0,0 l/m 0 min 0 min 74 W/m 6,4 km/h (2 Bft) 97,87 %
24.02.2023 09:26 4,2 C 3,9 C 1,7 C 89 % 1010,8 hPa 0,0 l/m 0 min 0 min 75 W/m 12,9 km/h (3 Bft) 97,87 %
24.02.2023 09:28 4,2 C 4,4 C 1,7 C 89 % 1010,8 hPa 0,0 l/m 0 min 0 min 78 W/m 3,2 km/h (1 Bft) 95,74 %
24.02.2023 09:30 4,2 C 4,4 C 1,7 C 89 % 1010,7 hPa 0,0 l/m 0 min 0 min 83 W/m 9,7 km/h (2 Bft) 61,70 %
24.02.2023 09:32 4,2 C 4,4 C 1,7 C 89 % 1010,7 hPa 0,0 l/m 0 min 0 min 86 W/m 6,4 km/h (2 Bft) 36,17 %
24.02.2023 09:34 4,2 C 4,4 C 1,7 C 89 % 1010,6 hPa 0,0 l/m 0 min 0 min 88 W/m 12,9 km/h (3 Bft) 67,39 %
24.02.2023 09:36 4,2 C 4,4 C 1,7 C 89 % 1010,5 hPa 0,0 l/m 0 min 0 min 108 W/m 12,9 km/h (3 Bft) 91,49 %
24.02.2023 09:38 4,2 C 4,4 C 1,7 C 89 % 1010,5 hPa 0,0 l/m 0 min 0 min 110 W/m 12,9 km/h (3 Bft) 93,62 %
24.02.2023 09:40 4,2 C 4,4 C 1,7 C 89 % 1010,5 hPa 0,0 l/m 0 min 0 min 104 W/m 12,9 km/h (3 Bft) 93,62 %
24.02.2023 09:42 4,2 C 4,4 C 1,7 C 88 % 1010,4 hPa 0,0 l/m 0 min 0 min 98 W/m 12,9 km/h (3 Bft) 93,62 %
24.02.2023 09:44 4,3 C 4,4 C 1,7 C 88 % 1010,4 hPa 0,0 l/m 0 min 0 min 97 W/m 9,7 km/h (2 Bft) 93,62 %
24.02.2023 09:46 4,3 C 4,4 C 1,7 C 88 % 1010,4 hPa 0,0 l/m 0 min 0 min 97 W/m 6,4 km/h (2 Bft) 95,65 %
24.02.2023 09:48 4,3 C 4,4 C 1,7 C 88 % 1010,3 hPa 0,0 l/m 0 min 0 min 101 W/m 6,4 km/h (2 Bft) 97,87 %
24.02.2023 09:50 4,3 C 4,4 C 1,7 C 88 % 1010,3 hPa 0,0 l/m 0 min 0 min 100 W/m 12,9 km/h (3 Bft) 95,74 %
24.02.2023 09:52 4,3 C 4,4 C 1,7 C 87 % 1010,4 hPa 0,0 l/m 0 min 0 min 98 W/m 12,9 km/h (3 Bft) 95,74 %
24.02.2023 09:54 4,3 C 4,4 C 1,7 C 87 % 1010,3 hPa 0,0 l/m 0 min 0 min 100 W/m 16,1 km/h (3 Bft) 93,62 %
24.02.2023 09:56 4,3 C 4,4 C 1,7 C 87 % 1010,2 hPa 0,0 l/m 0 min 0 min 100 W/m 12,9 km/h (3 Bft) 93,62 %
24.02.2023 09:58 4,4 C 4,4 C 1,7 C 86 % 1010,2 hPa 0,0 l/m 0 min 0 min 101 W/m 6,4 km/h (2 Bft) 95,74 %
24.02.2023 10:00 4,4 C 4,4 C 1,7 C 87 % 1010,2 hPa 0,0 l/m 0 min 0 min 107 W/m 9,7 km/h (2 Bft) 95,65 %
24.02.2023 10:02 4,4 C 4,4 C 1,7 C 86 % 1010,2 hPa 0,0 l/m 0 min 0 min 114 W/m 6,4 km/h (2 Bft) 93,62 %
24.02.2023 10:04 4,4 C 4,4 C 2,2 C 86 % 1010,1 hPa 0,0 l/m 0 min 0 min 119 W/m 6,4 km/h (2 Bft) 95,74 %
24.02.2023 10:06 4,5 C 5,0 C 2,2 C 86 % 1010,1 hPa 0,0 l/m 0 min 0 min 119 W/m 6,4 km/h (2 Bft) 97,92 %
24.02.2023 10:08 4,6 C 5,0 C 2,2 C 86 % 1010,1 hPa 0,0 l/m 0 min 0 min 114 W/m 12,9 km/h (3 Bft) 100,00 %
24.02.2023 10:10 4,6 C 5,0 C 2,2 C 86 % 1010,1 hPa 0,0 l/m 0 min 0 min 106 W/m 12,9 km/h (3 Bft) 100,00 %
24.02.2023 10:12 4,6 C 5,0 C 2,2 C 86 % 1010,1 hPa 0,0 l/m 0 min 0 min 100 W/m 9,7 km/h (2 Bft) 100,00 %
24.02.2023 10:14 4,6 C 4,4 C 2,2 C 86 % 1010,1 hPa 0,0 l/m 0 min 0 min 101 W/m 12,9 km/h (3 Bft) 97,87 %
24.02.2023 10:16 4,6 C 4,4 C 2,2 C 85 % 1010,1 hPa 0,0 l/m 0 min 0 min 107 W/m 16,1 km/h (3 Bft) 97,87 %
24.02.2023 10:18 4,6 C 4,4 C 2,2 C 85 % 1010,1 hPa 0,0 l/m 0 min 0 min 109 W/m 12,9 km/h (3 Bft) 97,87 %
24.02.2023 10:20 4,6 C 4,4 C 2,2 C 85 % 1010,1 hPa 0,0 l/m 0 min 0 min 108 W/m 16,1 km/h (3 Bft) 97,87 %
24.02.2023 10:22 4,6 C 4,4 C 2,2 C 85 % 1010,0 hPa 0,0 l/m 0 min 0 min 101 W/m 6,4 km/h (2 Bft) 95,74 %
24.02.2023 10:24 4,6 C 4,4 C 2,2 C 85 % 1010,0 hPa 0,0 l/m 0 min 0 min 97 W/m 16,1 km/h (3 Bft) 95,74 %
24.02.2023 10:26 4,6 C 4,4 C 2,2 C 84 % 1010,0 hPa 0,0 l/m 0 min 0 min 96 W/m 6,4 km/h (2 Bft) 95,65 %
24.02.2023 10:28 4,6 C 4,4 C 2,2 C 84 % 1009,9 hPa 0,0 l/m 0 min 0 min 101 W/m 16,1 km/h (3 Bft) 100,00 %
24.02.2023 10:30 4,7 C 4,4 C 2,2 C 84 % 1009,9 hPa 0,0 l/m 0 min 0 min 110 W/m 19,3 km/h (3 Bft) 100,00 %
24.02.2023 10:32 4,6 C 4,4 C 2,2 C 83 % 1009,8 hPa 0,0 l/m 0 min 0 min 119 W/m 12,9 km/h (3 Bft) 95,74 %
24.02.2023 10:34 4,7 C 5,0 C 2,2 C 83 % 1009,9 hPa 0,0 l/m 0 min 0 min 123 W/m 6,4 km/h (2 Bft) 87,23 %
24.02.2023 10:36 4,7 C 5,0 C 2,2 C 83 % 1009,9 hPa 0,0 l/m 0 min 0 min 122 W/m 6,4 km/h (2 Bft) 93,62 %
24.02.2023 10:38 4,7 C 5,0 C 2,2 C 84 % 1009,9 hPa 0,0 l/m 0 min 0 min 116 W/m 19,3 km/h (3 Bft) 100,00 %
24.02.2023 10:40 4,8 C 5,0 C 2,2 C 83 % 1009,8 hPa 0,0 l/m 0 min 0 min 108 W/m 12,9 km/h (3 Bft) 95,74 %
24.02.2023 10:42 4,8 C 5,0 C 2,2 C 83 % 1009,7 hPa 0,0 l/m 0 min 0 min 108 W/m 9,7 km/h (2 Bft) 95,74 %
24.02.2023 10:44 4,8 C 5,0 C 2,2 C 83 % 1009,7 hPa 0,0 l/m 0 min 0 min 111 W/m 12,9 km/h (3 Bft) 95,74 %
24.02.2023 10:46 4,8 C 5,0 C 2,2 C 83 % 1009,7 hPa 0,0 l/m 0 min 0 min 106 W/m 16,1 km/h (3 Bft) 93,62 %
24.02.2023 10:48 4,8 C 5,0 C 2,2 C 83 % 1009,5 hPa 0,0 l/m 0 min 0 min 100 W/m 16,1 km/h (3 Bft) 95,74 %
24.02.2023 10:50 4,8 C 5,0 C 2,2 C 83 % 1009,5 hPa 0,0 l/m 0 min 0 min 98 W/m 19,3 km/h (3 Bft) 93,62 %
24.02.2023 10:52 4,8 C 5,0 C 2,2 C 83 % 1009,5 hPa 0,0 l/m 0 min 0 min 98 W/m 6,4 km/h (2 Bft) 95,65 %
24.02.2023 10:54 4,9 C 5,0 C 2,2 C 83 % 1009,6 hPa 0,0 l/m 0 min 0 min 100 W/m 12,9 km/h (3 Bft) 95,74 %
24.02.2023 10:56 4,8 C 5,0 C 2,2 C 83 % 1009,5 hPa 0,0 l/m 0 min 0 min 108 W/m 22,5 km/h (4 Bft) 97,87 %
24.02.2023 10:58 4,9 C 5,0 C 2,2 C 83 % 1009,5 hPa 0,0 l/m 0 min 0 min 118 W/m 12,9 km/h (3 Bft) 97,87 %
24.02.2023 11:00 4,9 C 5,0 C 2,2 C 83 % 1009,5 hPa 0,0 l/m 0 min 0 min 121 W/m 16,1 km/h (3 Bft) 97,87 %
24.02.2023 11:02 4,9 C 5,0 C 2,2 C 83 % 1009,4 hPa 0,0 l/m 0 min 0 min 117 W/m 12,9 km/h (3 Bft) 97,87 %
24.02.2023 11:04 4,9 C 5,0 C 2,2 C 83 % 1009,4 hPa 0,0 l/m 0 min 0 min 112 W/m 12,9 km/h (3 Bft) 97,83 %
24.02.2023 11:06 5,0 C 5,0 C 2,2 C 83 % 1009,5 hPa 0,0 l/m 0 min 0 min 98 W/m 12,9 km/h (3 Bft) 97,87 %
24.02.2023 11:08 5,0 C 5,0 C 2,2 C 83 % 1009,5 hPa 0,0 l/m 0 min 0 min 89 W/m 9,7 km/h (2 Bft) 97,87 %
24.02.2023 11:10 5,0 C 5,0 C 2,2 C 83 % 1009,4 hPa 0,0 l/m 0 min 0 min 91 W/m 22,5 km/h (4 Bft) 95,74 %
24.02.2023 11:12 5,0 C 5,0 C 2,2 C 83 % 1009,3 hPa 0,0 l/m 0 min 0 min 91 W/m 9,7 km/h (2 Bft) 97,87 %
24.02.2023 11:14 5,0 C 5,0 C 2,2 C 83 % 1009,3 hPa 0,0 l/m 0 min 0 min 91 W/m 19,3 km/h (3 Bft) 97,87 %
24.02.2023 11:16 5,0 C 5,0 C 2,2 C 83 % 1009,3 hPa 0,0 l/m 0 min 0 min 90 W/m 22,5 km/h (4 Bft) 97,87 %
24.02.2023 11:18 5,0 C 5,0 C 2,2 C 82 % 1009,2 hPa 0,0 l/m 0 min 0 min 90 W/m 19,3 km/h (3 Bft) 97,83 %
24.02.2023 11:20 4,9 C 5,0 C 2,2 C 82 % 1009,2 hPa 0,0 l/m 0 min 0 min 88 W/m 22,5 km/h (4 Bft) 97,87 %
24.02.2023 11:22 4,9 C 5,0 C 2,2 C 82 % 1009,2 hPa 0,0 l/m 0 min 0 min 84 W/m 16,1 km/h (3 Bft) 95,74 %
24.02.2023 11:24 4,9 C 5,0 C 2,2 C 82 % 1009,2 hPa 0,0 l/m 0 min 0 min 81 W/m 12,9 km/h (3 Bft) 95,74 %
24.02.2023 11:26 4,9 C 5,0 C 2,2 C 82 % 1009,2 hPa 0,0 l/m 0 min 0 min 81 W/m 19,3 km/h (3 Bft) 95,74 %
24.02.2023 11:28 4,9 C 4,4 C 1,7 C 82 % 1009,1 hPa 0,0 l/m 0 min 0 min 81 W/m 12,9 km/h (3 Bft) 100,00 %
24.02.2023 11:30 4,9 C 5,0 C 2,2 C 82 % 1009,0 hPa 0,0 l/m 0 min 0 min 80 W/m 12,9 km/h (3 Bft) 97,83 %
24.02.2023 11:32 5,0 C 5,0 C 2,2 C 82 % 1009,0 hPa 0,0 l/m 0 min 0 min 78 W/m 12,9 km/h (3 Bft) 97,87 %
24.02.2023 11:34 5,0 C 5,0 C 2,2 C 82 % 1009,0 hPa 0,0 l/m 0 min 0 min 75 W/m 19,3 km/h (3 Bft) 97,87 %
24.02.2023 11:36 5,0 C 5,0 C 2,2 C 82 % 1008,9 hPa 0,0 l/m 0 min 0 min 74 W/m 19,3 km/h (3 Bft) 97,87 %
24.02.2023 11:38 5,0 C 5,0 C 1,7 C 82 % 1008,9 hPa 0,0 l/m 0 min 0 min 77 W/m 12,9 km/h (3 Bft) 93,62 %
24.02.2023 11:40 5,0 C 5,0 C 1,7 C 82 % 1008,8 hPa 0,0 l/m 0 min 0 min 80 W/m 19,3 km/h (3 Bft) 97,87 %
24.02.2023 11:42 4,9 C 5,0 C 1,7 C 82 % 1008,7 hPa 0,0 l/m 0 min 0 min 79 W/m 12,9 km/h (3 Bft) 97,87 %
24.02.2023 11:44 5,0 C 5,0 C 1,7 C 82 % 1008,7 hPa 0,0 l/m 0 min 0 min 79 W/m 12,9 km/h (3 Bft) 97,83 %
24.02.2023 11:46 5,0 C 5,0 C 1,7 C 82 % 1008,8 hPa 0,0 l/m 0 min 0 min 83 W/m 16,1 km/h (3 Bft) 100,00 %
24.02.2023 11:48 5,0 C 5,0 C 1,7 C 82 % 1008,7 hPa 0,0 l/m 0 min 0 min 87 W/m 16,1 km/h (3 Bft) 97,87 %
24.02.2023 11:50 5,0 C 5,0 C 1,7 C 82 % 1008,7 hPa 0,0 l/m 0 min 0 min 88 W/m 16,1 km/h (3 Bft) 95,74 %
24.02.2023 11:52 5,0 C 5,0 C 1,7 C 82 % 1008,7 hPa 0,0 l/m 0 min 2 min 82 W/m 12,9 km/h (3 Bft) 97,87 %
24.02.2023 11:54 5,1 C 5,0 C 1,7 C 82 % 1008,7 hPa 0,0 l/m 0 min 2 min 71 W/m 12,9 km/h (3 Bft) 97,87 %
24.02.2023 11:56 5,0 C 5,0 C 1,7 C 82 % 1008,7 hPa 0,0 l/m 0 min 0 min 67 W/m 19,3 km/h (3 Bft) 97,83 %
24.02.2023 11:58 5,1 C 5,0 C 1,7 C 82 % 1008,7 hPa 0,0 l/m 0 min 0 min 65 W/m 12,9 km/h (3 Bft) 97,22 %
24.02.2023 12:00 5,0 C 4,4 C 1,7 C 82 % 1008,7 hPa 0,0 l/m 0 min 0 min 65 W/m 22,5 km/h (4 Bft) 100,00 %
24.02.2023 12:02 5,0 C 4,4 C 1,7 C 83 % 1008,6 hPa 0,0 l/m 0 min 2 min 65 W/m 16,1 km/h (3 Bft) 86,67 %
24.02.2023 12:04 5,0 C 4,4 C 1,7 C 83 % 1008,6 hPa 0,0 l/m 0 min 2 min 64 W/m 12,9 km/h (3 Bft) 95,74 %
24.02.2023 12:07 5,0 C 4,4 C 1,7 C 83 % 1008,6 hPa 0,0 l/m 0 min 3 min 73 W/m 12,9 km/h (3 Bft) 98,18 %
24.02.2023 12:08 5,0 C 4,4 C 1,7 C 83 % 1008,6 hPa 0,0 l/m 0 min 1 min 75 W/m 12,9 km/h (3 Bft) 95,83 %
24.02.2023 12:12 5,0 C 4,4 C 1,1 C 84 % 1008,5 hPa 0,0 l/m 0 min 4 min 70 W/m 12,9 km/h (3 Bft) 96,23 %
24.02.2023 12:14 5,0 C 4,4 C 1,1 C 84 % 1008,5 hPa 0,0 l/m 0 min 2 min 75 W/m 19,3 km/h (3 Bft) 93,48 %
24.02.2023 12:16 4,9 C 4,4 C 1,1 C 84 % 1008,4 hPa 0,0 l/m 0 min 2 min 78 W/m 19,3 km/h (3 Bft) 95,74 %
24.02.2023 12:18 4,9 C 4,4 C 1,1 C 84 % 1008,4 hPa 0,0 l/m 0 min 2 min 77 W/m 12,9 km/h (3 Bft) 97,87 %
24.02.2023 12:20 4,9 C 4,4 C 1,1 C 85 % 1008,3 hPa 0,0 l/m 0 min 2 min 74 W/m 16,1 km/h (3 Bft) 95,74 %
24.02.2023 12:22 4,9 C 4,4 C 0,6 C 85 % 1008,3 hPa 0,0 l/m 0 min 2 min 70 W/m 25,7 km/h (4 Bft) 95,74 %
24.02.2023 12:24 4,8 C 4,4 C 0,6 C 85 % 1008,3 hPa 0,0 l/m 0 min 2 min 69 W/m 25,7 km/h (4 Bft) 95,74 %
24.02.2023 12:26 4,8 C 4,4 C 0,6 C 85 % 1008,3 hPa 0,0 l/m 0 min 2 min 75 W/m 16,1 km/h (3 Bft) 97,83 %
24.02.2023 12:28 4,8 C 4,4 C 0,6 C 86 % 1008,3 hPa 0,0 l/m 0 min 2 min 79 W/m 6,4 km/h (2 Bft) 97,87 %
24.02.2023 12:30 4,8 C 4,4 C 0,6 C 86 % 1008,3 hPa 0,0 l/m 0 min 2 min 78 W/m 19,3 km/h (3 Bft) 97,87 %
24.02.2023 12:32 4,8 C 4,4 C 0,6 C 86 % 1008,2 hPa 0,0 l/m 0 min 2 min 75 W/m 19,3 km/h (3 Bft) 97,87 %
24.02.2023 12:34 4,7 C 4,4 C 0,6 C 86 % 1008,2 hPa 0,0 l/m 0 min 2 min 72 W/m 16,1 km/h (3 Bft) 97,87 %
24.02.2023 12:36 4,7 C 4,4 C 0,6 C 86 % 1008,1 hPa 0,0 l/m 0 min 2 min 72 W/m 22,5 km/h (4 Bft) 93,62 %
24.02.2023 12:38 4,7 C 4,4 C 0,6 C 86 % 1008,1 hPa 0,0 l/m 0 min 2 min 76 W/m 19,3 km/h (3 Bft) 95,74 %
24.02.2023 12:40 4,6 C 4,4 C 0,6 C 87 % 1008,0 hPa 0,0 l/m 0 min 2 min 75 W/m 16,1 km/h (3 Bft) 97,83 %
24.02.2023 12:42 4,6 C 4,4 C 0,6 C 87 % 1008,0 hPa 0,0 l/m 0 min 2 min 69 W/m 9,7 km/h (2 Bft) 97,87 %
24.02.2023 12:44 4,6 C 4,4 C 0,6 C 87 % 1008,0 hPa 0,0 l/m 0 min 2 min 72 W/m 22,5 km/h (4 Bft) 97,87 %
24.02.2023 12:46 4,6 C 4,4 C 0,6 C 87 % 1007,9 hPa 0,0 l/m 0 min 0 min 82 W/m 19,3 km/h (3 Bft) 97,87 %
24.02.2023 12:48 4,5 C 4,4 C 0,6 C 87 % 1007,9 hPa 0,0 l/m 0 min 2 min 84 W/m 19,3 km/h (3 Bft) 97,87 %
24.02.2023 12:50 4,5 C 4,4 C 0,6 C 87 % 1007,9 hPa 0,0 l/m 0 min 2 min 88 W/m 12,9 km/h (3 Bft) 97,87 %
24.02.2023 12:52 4,5 C 4,4 C 0,6 C 87 % 1007,8 hPa 0,0 l/m 0 min 2 min 95 W/m 22,5 km/h (4 Bft) 97,83 %
24.02.2023 12:54 4,5 C 4,4 C 0,6 C 87 % 1007,8 hPa 0,0 l/m 0 min 2 min 107 W/m 16,1 km/h (3 Bft) 93,62 %
24.02.2023 12:56 4,6 C 4,4 C 0,6 C 88 % 1007,7 hPa 0,0 l/m 0 min 2 min 110 W/m 9,7 km/h (2 Bft) 95,74 %
24.02.2023 12:58 4,6 C 4,4 C 0,6 C 88 % 1007,7 hPa 0,0 l/m 0 min 2 min 99 W/m 12,9 km/h (3 Bft) 97,87 %
24.02.2023 13:00 4,6 C 4,4 C 0,6 C 88 % 1007,6 hPa 0,0 l/m 0 min 2 min 93 W/m 19,3 km/h (3 Bft) 100,00 %
24.02.2023 13:02 4,6 C 4,4 C 0,6 C 88 % 1007,7 hPa 0,0 l/m 0 min 2 min 96 W/m 16,1 km/h (3 Bft) 100,00 %
24.02.2023 13:04 4,6 C 4,4 C 0,6 C 88 % 1007,6 hPa 0,2 l/m 0 min 2 min 93 W/m 16,1 km/h (3 Bft) 97,87 %
24.02.2023 13:06 4,7 C 4,4 C 0,6 C 88 % 1007,5 hPa 0,0 l/m 0 min 2 min 84 W/m 12,9 km/h (3 Bft) 100,00 %
24.02.2023 13:08 4,7 C 4,4 C 0,6 C 88 % 1007,5 hPa 0,0 l/m 0 min 2 min 75 W/m 12,9 km/h (3 Bft) 97,14 %
24.02.2023 13:10 4,7 C 4,4 C 0,6 C 88 % 1007,5 hPa 0,0 l/m 0 min 2 min 74 W/m 19,3 km/h (3 Bft) 97,87 %
24.02.2023 13:12 4,6 C 4,4 C 0,6 C 88 % 1007,5 hPa 0,0 l/m 0 min 2 min 92 W/m 19,3 km/h (3 Bft) 97,87 %
24.02.2023 13:14 4,6 C 4,4 C 0,6 C 88 % 1007,5 hPa 0,0 l/m 0 min 2 min 95 W/m 16,1 km/h (3 Bft) 100,00 %
24.02.2023 13:16 4,6 C 4,4 C 0,6 C 88 % 1007,5 hPa 0,0 l/m 0 min 2 min 87 W/m 12,9 km/h (3 Bft) 100,00 %
24.02.2023 13:18 4,6 C 4,4 C 0,6 C 89 % 1007,5 hPa 0,0 l/m 0 min 2 min 78 W/m 16,1 km/h (3 Bft) 100,00 %
24.02.2023 13:20 4,6 C 4,4 C 0,6 C 89 % 1007,5 hPa 0,0 l/m 0 min 2 min 75 W/m 12,9 km/h (3 Bft) 97,87 %
24.02.2023 13:22 4,6 C 4,4 C 0,6 C 89 % 1007,4 hPa 0,0 l/m 0 min 2 min 67 W/m 12,9 km/h (3 Bft) 97,87 %
24.02.2023 13:24 4,6 C 4,4 C 0,6 C 89 % 1007,4 hPa 0,0 l/m 0 min 0 min 64 W/m 9,7 km/h (2 Bft) 95,74 %
24.02.2023 13:26 4,6 C 4,4 C 0,6 C 90 % 1007,4 hPa 0,0 l/m 0 min 2 min 63 W/m 16,1 km/h (3 Bft) 93,62 %
24.02.2023 13:28 4,6 C 4,4 C 0,6 C 90 % 1007,4 hPa 0,0 l/m 0 min 2 min 71 W/m 12,9 km/h (3 Bft) 95,74 %
24.02.2023 13:30 4,6 C 4,4 C 0,6 C 90 % 1007,4 hPa 0,0 l/m 0 min 2 min 71 W/m 6,4 km/h (2 Bft) 95,74 %
24.02.2023 13:32 4,6 C 4,4 C 0,6 C 90 % 1007,3 hPa 0,0 l/m 0 min 2 min 77 W/m 9,7 km/h (2 Bft) 93,48 %
24.02.2023 13:34 4,6 C 4,4 C 0,6 C 90 % 1007,3 hPa 0,0 l/m 0 min 2 min 70 W/m 19,3 km/h (3 Bft) 93,62 %
24.02.2023 13:36 4,6 C 4,4 C 0,6 C 90 % 1007,3 hPa 0,0 l/m 0 min 2 min 73 W/m 12,9 km/h (3 Bft) 95,74 %
24.02.2023 13:38 4,6 C 4,4 C 0,6 C 90 % 1007,2 hPa 0,0 l/m 0 min 2 min 80 W/m 19,3 km/h (3 Bft) 95,74 %
24.02.2023 13:40 4,5 C 4,4 C 0,6 C 90 % 1007,2 hPa 0,0 l/m 0 min 2 min 94 W/m 12,9 km/h (3 Bft) 95,74 %
24.02.2023 13:42 4,4 C 4,4 C 0,6 C 90 % 1007,1 hPa 0,2 l/m 0 min 2 min 103 W/m 19,3 km/h (3 Bft) 95,74 %
24.02.2023 13:44 4,4 C 4,4 C 0,6 C 91 % 1007,0 hPa 0,0 l/m 0 min 2 min 114 W/m 16,1 km/h (3 Bft) 95,65 %
24.02.2023 13:46 4,4 C 4,4 C 0,6 C 91 % 1007,0 hPa 0,0 l/m 0 min 2 min 124 W/m 16,1 km/h (3 Bft) 95,74 %
24.02.2023 13:48 4,4 C 4,4 C 0,6 C 91 % 1007,0 hPa 0,0 l/m 0 min 2 min 114 W/m 25,7 km/h (4 Bft) 95,74 %
24.02.2023 13:50 4,4 C 4,4 C 0,6 C 91 % 1007,0 hPa 0,0 l/m 0 min 2 min 106 W/m 12,9 km/h (3 Bft) 95,74 %
24.02.2023 13:52 4,5 C 4,4 C 0,6 C 91 % 1006,9 hPa 0,0 l/m 0 min 2 min 109 W/m 16,1 km/h (3 Bft) 93,62 %
24.02.2023 13:54 4,5 C 4,4 C 0,6 C 91 % 1006,9 hPa 0,0 l/m 0 min 2 min 122 W/m 12,9 km/h (3 Bft) 97,87 %
24.02.2023 13:56 4,6 C 4,4 C 0,6 C 91 % 1006,8 hPa 0,0 l/m 0 min 2 min 110 W/m 16,1 km/h (3 Bft) 97,87 %
24.02.2023 13:58 4,5 C 4,4 C 0,6 C 91 % 1006,8 hPa 0,0 l/m 0 min 2 min 106 W/m 16,1 km/h (3 Bft) 97,83 %
24.02.2023 14:00 4,5 C 4,4 C 0,6 C 91 % 1006,8 hPa 0,0 l/m 0 min 2 min 106 W/m 12,9 km/h (3 Bft) 95,74 %
24.02.2023 14:02 4,5 C 4,4 C 0,6 C 91 % 1006,8 hPa 0,0 l/m 0 min 2 min 105 W/m 19,3 km/h (3 Bft) 97,87 %
24.02.2023 14:04 4,5 C 4,4 C 0,6 C 91 % 1006,7 hPa 0,0 l/m 0 min 2 min 101 W/m 12,9 km/h (3 Bft) 97,87 %
24.02.2023 14:06 4,6 C 4,4 C 0,6 C 92 % 1006,7 hPa 0,0 l/m 0 min 2 min 90 W/m 9,7 km/h (2 Bft) 96,61 %
24.02.2023 14:08 4,6 C 4,4 C 1,1 C 92 % 1006,6 hPa 0,0 l/m 0 min 2 min 92 W/m 12,9 km/h (3 Bft) 97,14 %
24.02.2023 14:10 4,6 C 4,4 C 1,1 C 92 % 1006,6 hPa 0,0 l/m 0 min 2 min 111 W/m 6,4 km/h (2 Bft) 100,00 %
24.02.2023 14:12 4,7 C 4,4 C 1,1 C 92 % 1006,5 hPa 0,0 l/m 0 min 2 min 117 W/m 12,9 km/h (3 Bft) 97,87 %
24.02.2023 14:14 4,7 C 4,4 C 1,1 C 92 % 1006,4 hPa 0,0 l/m 0 min 2 min 117 W/m 16,1 km/h (3 Bft) 100,00 %
24.02.2023 14:16 4,7 C 4,4 C 1,1 C 92 % 1006,4 hPa 0,0 l/m 0 min 2 min 121 W/m 12,9 km/h (3 Bft) 97,83 %
24.02.2023 14:18 4,7 C 4,4 C 1,1 C 92 % 1006,4 hPa 0,0 l/m 0 min 2 min 110 W/m 19,3 km/h (3 Bft) 95,74 %
24.02.2023 14:20 4,7 C 4,4 C 1,1 C 92 % 1006,4 hPa 0,0 l/m 0 min 2 min 98 W/m 25,7 km/h (4 Bft) 97,87 %
24.02.2023 14:22 4,7 C 4,4 C 1,1 C 92 % 1006,4 hPa 0,0 l/m 0 min 2 min 89 W/m 12,9 km/h (3 Bft) 97,87 %
24.02.2023 14:24 4,7 C 4,4 C 1,1 C 92 % 1006,4 hPa 0,0 l/m 0 min 2 min 90 W/m 6,4 km/h (2 Bft) 95,74 %
24.02.2023 14:26 4,8 C 4,4 C 1,1 C 92 % 1006,4 hPa 0,0 l/m 0 min 2 min 75 W/m 19,3 km/h (3 Bft) 100,00 %
24.02.2023 14:28 4,7 C 4,4 C 0,6 C 92 % 1006,4 hPa 0,0 l/m 0 min 2 min 61 W/m 22,5 km/h (4 Bft) 100,00 %
24.02.2023 14:30 4,7 C 4,4 C 0,6 C 92 % 1006,4 hPa 0,0 l/m 0 min 2 min 56 W/m 12,9 km/h (3 Bft) 97,83 %
24.02.2023 14:32 4,7 C 4,4 C 1,1 C 92 % 1006,4 hPa 0,0 l/m 0 min 2 min 54 W/m 12,9 km/h (3 Bft) 100,00 %
24.02.2023 14:34 4,7 C 4,4 C 1,1 C 92 % 1006,4 hPa 0,0 l/m 0 min 2 min 50 W/m 12,9 km/h (3 Bft) 97,87 %
24.02.2023 14:36 4,7 C 4,4 C 1,1 C 92 % 1006,3 hPa 0,0 l/m 0 min 2 min 50 W/m 22,5 km/h (4 Bft) 97,87 %
24.02.2023 14:38 4,7 C 4,4 C 0,6 C 92 % 1006,2 hPa 0,0 l/m 0 min 2 min 50 W/m 25,7 km/h (4 Bft) 100,00 %
24.02.2023 14:40 4,7 C 4,4 C 0,6 C 92 % 1006,2 hPa 0,0 l/m 0 min 2 min 52 W/m 16,1 km/h (3 Bft) 100,00 %
24.02.2023 14:42 4,7 C 4,4 C 0,6 C 92 % 1006,2 hPa 0,2 l/m 0 min 2 min 52 W/m 19,3 km/h (3 Bft) 97,87 %
24.02.2023 14:44 4,7 C 4,4 C 0,6 C 92 % 1006,3 hPa 0,0 l/m 0 min 2 min 48 W/m 9,7 km/h (2 Bft) 100,00 %
24.02.2023 14:46 4,7 C 4,4 C 0,6 C 92 % 1006,2 hPa 0,0 l/m 0 min 2 min 52 W/m 19,3 km/h (3 Bft) 97,87 %
24.02.2023 14:48 4,7 C 4,4 C 0,6 C 92 % 1006,2 hPa 0,0 l/m 0 min 2 min 54 W/m 16,1 km/h (3 Bft) 97,87 %
24.02.2023 14:50 4,7 C 4,4 C 1,1 C 92 % 1006,2 hPa 0,0 l/m 0 min 2 min 52 W/m 12,9 km/h (3 Bft) 100,00 %
24.02.2023 14:52 4,7 C 4,4 C 1,1 C 92 % 1006,2 hPa 0,0 l/m 0 min 2 min 46 W/m 12,9 km/h (3 Bft) 100,00 %
24.02.2023 14:54 4,7 C 4,4 C 1,1 C 92 % 1006,1 hPa 0,0 l/m 0 min 2 min 45 W/m 12,9 km/h (3 Bft) 97,87 %
24.02.2023 14:56 4,7 C 4,4 C 1,1 C 92 % 1006,0 hPa 0,0 l/m 0 min 2 min 48 W/m 19,3 km/h (3 Bft) 97,83 %
24.02.2023 14:58 4,7 C 4,4 C 1,1 C 92 % 1006,0 hPa 0,0 l/m 0 min 2 min 54 W/m 16,1 km/h (3 Bft) 100,00 %
24.02.2023 15:00 4,7 C 4,4 C 1,1 C 92 % 1005,9 hPa 0,0 l/m 0 min 2 min 53 W/m 12,9 km/h (3 Bft) 97,87 %
24.02.2023 15:02 4,7 C 4,4 C 1,1 C 92 % 1005,9 hPa 0,0 l/m 0 min 2 min 52 W/m 16,1 km/h (3 Bft) 95,74 %
24.02.2023 15:04 4,8 C 4,4 C 1,1 C 92 % 1005,9 hPa 0,0 l/m 0 min 2 min 52 W/m 12,9 km/h (3 Bft) 100,00 %
24.02.2023 15:06 4,8 C 4,4 C 1,1 C 93 % 1005,8 hPa 0,0 l/m 0 min 2 min 58 W/m 16,1 km/h (3 Bft) 96,55 %
24.02.2023 15:08 4,8 C 4,4 C 1,1 C 93 % 1005,9 hPa 0,0 l/m 0 min 2 min 53 W/m 19,3 km/h (3 Bft) 100,00 %
24.02.2023 15:10 4,8 C 4,4 C 1,1 C 93 % 1005,9 hPa 0,0 l/m 0 min 2 min 44 W/m 12,9 km/h (3 Bft) 97,83 %
24.02.2023 15:12 4,8 C 4,4 C 1,1 C 93 % 1005,9 hPa 0,2 l/m 0 min 2 min 42 W/m 12,9 km/h (3 Bft) 97,87 %
24.02.2023 15:14 4,8 C 4,4 C 1,1 C 93 % 1005,8 hPa 0,0 l/m 0 min 2 min 46 W/m 22,5 km/h (4 Bft) 97,87 %
24.02.2023 15:16 4,8 C 4,4 C 1,1 C 93 % 1005,8 hPa 0,0 l/m 0 min 2 min 45 W/m 16,1 km/h (3 Bft) 97,87 %
24.02.2023 15:18 4,8 C 4,4 C 1,1 C 93 % 1005,8 hPa 0,0 l/m 0 min 0 min 45 W/m 12,9 km/h (3 Bft) 95,74 %
24.02.2023 15:20 4,8 C 4,4 C 1,1 C 93 % 1005,9 hPa 0,0 l/m 0 min 0 min 53 W/m 12,9 km/h (3 Bft) 95,74 %
24.02.2023 15:22 4,8 C 4,4 C 1,1 C 93 % 1005,8 hPa 0,0 l/m 0 min 2 min 47 W/m 16,1 km/h (3 Bft) 95,65 %
24.02.2023 15:24 4,8 C 4,4 C 1,1 C 93 % 1005,7 hPa 0,0 l/m 0 min 2 min 37 W/m 9,7 km/h (2 Bft) 93,62 %
24.02.2023 15:26 4,8 C 4,4 C 1,1 C 93 % 1005,8 hPa 0,0 l/m 0 min 2 min 32 W/m 19,3 km/h (3 Bft) 93,62 %
24.02.2023 15:28 4,8 C 4,4 C 1,1 C 93 % 1005,8 hPa 0,0 l/m 0 min 2 min 30 W/m 6,4 km/h (2 Bft) 93,62 %
24.02.2023 15:30 4,8 C 4,4 C 1,1 C 93 % 1005,7 hPa 0,0 l/m 0 min 0 min 30 W/m 9,7 km/h (2 Bft) 93,62 %
24.02.2023 15:32 4,8 C 4,4 C 1,1 C 94 % 1005,6 hPa 0,0 l/m 0 min 0 min 32 W/m 19,3 km/h (3 Bft) 93,62 %
24.02.2023 15:34 4,8 C 4,4 C 1,1 C 94 % 1005,7 hPa 0,0 l/m 0 min 0 min 31 W/m 16,1 km/h (3 Bft) 95,65 %
24.02.2023 15:36 4,8 C 4,4 C 1,1 C 94 % 1005,6 hPa 0,0 l/m 0 min 2 min 29 W/m 22,5 km/h (4 Bft) 95,74 %
24.02.2023 15:38 4,8 C 4,4 C 1,1 C 94 % 1005,6 hPa 0,0 l/m 0 min 0 min 29 W/m 22,5 km/h (4 Bft) 95,74 %
24.02.2023 15:40 4,8 C 4,4 C 1,1 C 94 % 1005,5 hPa 0,0 l/m 0 min 0 min 32 W/m 22,5 km/h (4 Bft) 97,87 %
24.02.2023 15:42 4,9 C 4,4 C 1,1 C 94 % 1005,5 hPa 0,0 l/m 0 min 0 min 33 W/m 16,1 km/h (3 Bft) 97,87 %
24.02.2023 15:44 4,9 C 4,4 C 1,1 C 94 % 1005,5 hPa 0,0 l/m 0 min 0 min 42 W/m 12,9 km/h (3 Bft) 95,74 %
24.02.2023 15:46 4,9 C 4,4 C 1,1 C 94 % 1005,5 hPa 0,0 l/m 0 min 0 min 45 W/m 12,9 km/h (3 Bft) 91,49 %
24.02.2023 15:48 4,9 C 4,4 C 1,1 C 94 % 1005,6 hPa 0,0 l/m 0 min 2 min 37 W/m 19,3 km/h (3 Bft) 97,83 %
24.02.2023 15:50 5,0 C 4,4 C 1,1 C 94 % 1005,5 hPa 0,0 l/m 0 min 0 min 44 W/m 19,3 km/h (3 Bft) 97,87 %
24.02.2023 15:52 5,1 C 4,4 C 1,1 C 94 % 1005,6 hPa 0,0 l/m 0 min 2 min 42 W/m 12,9 km/h (3 Bft) 97,87 %
24.02.2023 15:54 5,1 C 4,4 C 1,1 C 94 % 1005,6 hPa 0,0 l/m 0 min 0 min 37 W/m 12,9 km/h (3 Bft) 95,74 %
24.02.2023 15:56 5,1 C 4,4 C 1,1 C 94 % 1005,6 hPa 0,0 l/m 0 min 0 min 40 W/m 19,3 km/h (3 Bft) 95,74 %
24.02.2023 15:58 5,1 C 4,4 C 1,1 C 94 % 1005,5 hPa 0,0 l/m 0 min 0 min 41 W/m 16,1 km/h (3 Bft) 95,74 %
24.02.2023 16:00 5,1 C 5,0 C 1,1 C 94 % 1005,6 hPa 0,0 l/m 0 min 0 min 38 W/m 16,1 km/h (3 Bft) 97,83 %
24.02.2023 16:02 5,1 C 5,0 C 1,1 C 94 % 1005,6 hPa 0,0 l/m 0 min 0 min 39 W/m 12,9 km/h (3 Bft) 95,74 %
24.02.2023 16:04 5,1 C 5,0 C 1,7 C 94 % 1005,5 hPa 0,0 l/m 0 min 0 min 49 W/m 12,9 km/h (3 Bft) 93,62 %
24.02.2023 16:06 5,1 C 5,0 C 1,7 C 94 % 1005,5 hPa 0,0 l/m 0 min 0 min 62 W/m 12,9 km/h (3 Bft) 94,92 %
24.02.2023 16:08 5,2 C 5,0 C 1,7 C 94 % 1005,4 hPa 0,0 l/m 0 min 0 min 70 W/m 19,3 km/h (3 Bft) 94,29 %
24.02.2023 16:10 5,2 C 5,0 C 1,7 C 94 % 1005,3 hPa 0,0 l/m 0 min 0 min 74 W/m 16,1 km/h (3 Bft) 95,74 %
24.02.2023 16:12 5,2 C 5,0 C 1,7 C 94 % 1005,4 hPa 0,0 l/m 0 min 0 min 61 W/m 16,1 km/h (3 Bft) 93,62 %
24.02.2023 16:14 5,2 C 5,0 C 1,7 C 94 % 1005,4 hPa 0,0 l/m 0 min 0 min 77 W/m 19,3 km/h (3 Bft) 97,83 %
24.02.2023 16:16 5,2 C 5,0 C 1,7 C 94 % 1005,3 hPa 0,0 l/m 0 min 0 min 97 W/m 12,9 km/h (3 Bft) 95,74 %
24.02.2023 16:18 5,2 C 5,0 C 1,7 C 94 % 1005,2 hPa 0,0 l/m 0 min 0 min 80 W/m 12,9 km/h (3 Bft) 95,74 %
24.02.2023 16:20 5,2 C 5,0 C 1,7 C 94 % 1005,2 hPa 0,0 l/m 0 min 0 min 73 W/m 16,1 km/h (3 Bft) 97,87 %
24.02.2023 16:22 5,2 C 5,0 C 1,7 C 94 % 1005,2 hPa 0,0 l/m 0 min 0 min 57 W/m 16,1 km/h (3 Bft) 95,74 %
24.02.2023 16:24 5,2 C 5,0 C 1,7 C 94 % 1005,2 hPa 0,0 l/m 0 min 0 min 70 W/m 12,9 km/h (3 Bft) 95,74 %
24.02.2023 16:26 5,3 C 5,0 C 1,7 C 94 % 1005,1 hPa 0,0 l/m 0 min 0 min 106 W/m 16,1 km/h (3 Bft) 97,83 %
24.02.2023 16:28 5,3 C 5,0 C 1,7 C 94 % 1005,1 hPa 0,0 l/m 0 min 0 min 67 W/m 22,5 km/h (4 Bft) 97,87 %
24.02.2023 16:30 5,3 C 5,0 C 1,7 C 94 % 1005,1 hPa 0,0 l/m 0 min 0 min 56 W/m 16,1 km/h (3 Bft) 95,74 %
24.02.2023 16:32 5,3 C 5,0 C 1,7 C 94 % 1005,1 hPa 0,0 l/m 0 min 0 min 73 W/m 22,5 km/h (4 Bft) 97,87 %
24.02.2023 16:34 5,3 C 5,0 C 1,7 C 94 % 1005,1 hPa 0,0 l/m 0 min 0 min 95 W/m 16,1 km/h (3 Bft) 95,74 %
24.02.2023 16:36 5,3 C 5,0 C 1,7 C 94 % 1005,1 hPa 0,0 l/m 0 min 0 min 77 W/m 16,1 km/h (3 Bft) 97,87 %
24.02.2023 16:38 5,3 C 5,0 C 1,7 C 94 % 1005,0 hPa 0,0 l/m 0 min 0 min 68 W/m 6,4 km/h (2 Bft) 95,74 %
24.02.2023 16:40 5,3 C 5,0 C 1,7 C 94 % 1005,0 hPa 0,0 l/m 0 min 0 min 87 W/m 19,3 km/h (3 Bft) 97,83 %
24.02.2023 16:42 5,4 C 5,0 C 1,7 C 94 % 1005,0 hPa 0,0 l/m 0 min 0 min 67 W/m 19,3 km/h (3 Bft) 95,74 %
24.02.2023 16:44 5,3 C 5,0 C 1,7 C 94 % 1004,9 hPa 0,0 l/m 0 min 0 min 39 W/m 12,9 km/h (3 Bft) 100,00 %
24.02.2023 16:46 5,3 C 5,0 C 1,7 C 94 % 1004,9 hPa 0,0 l/m 0 min 0 min 34 W/m 16,1 km/h (3 Bft) 100,00 %
24.02.2023 16:48 5,4 C 5,0 C 1,7 C 94 % 1004,9 hPa 0,0 l/m 0 min 0 min 39 W/m 16,1 km/h (3 Bft) 97,87 %
24.02.2023 16:50 5,4 C 5,0 C 1,7 C 94 % 1004,8 hPa 0,0 l/m 0 min 0 min 38 W/m 16,1 km/h (3 Bft) 97,87 %
24.02.2023 16:52 5,4 C 5,0 C 1,7 C 94 % 1004,8 hPa 0,0 l/m 0 min 0 min 23 W/m 12,9 km/h (3 Bft) 100,00 %
24.02.2023 16:54 5,4 C 5,0 C 1,7 C 94 % 1004,7 hPa 0,0 l/m 0 min 0 min 27 W/m 16,1 km/h (3 Bft) 100,00 %
24.02.2023 16:56 5,4 C 5,0 C 1,7 C 94 % 1004,6 hPa 0,0 l/m 0 min 0 min 26 W/m 19,3 km/h (3 Bft) 95,74 %
24.02.2023 16:58 5,4 C 5,0 C 1,7 C 94 % 1004,5 hPa 0,0 l/m 0 min 0 min 24 W/m 16,1 km/h (3 Bft) 95,74 %
24.02.2023 17:00 5,4 C 5,0 C 1,7 C 94 % 1004,6 hPa 0,0 l/m 0 min 0 min 19 W/m 12,9 km/h (3 Bft) 97,87 %
24.02.2023 17:02 5,4 C 5,0 C 1,7 C 94 % 1004,7 hPa 0,0 l/m 0 min 0 min 17 W/m 19,3 km/h (3 Bft) 95,74 %
24.02.2023 17:04 5,4 C 5,0 C 1,7 C 94 % 1004,6 hPa 0,0 l/m 0 min 0 min 21 W/m 12,9 km/h (3 Bft) 97,83 %
24.02.2023 17:06 5,4 C 5,0 C 1,7 C 94 % 1004,5 hPa 0,0 l/m 0 min 0 min 21 W/m 12,9 km/h (3 Bft) 98,33 %
24.02.2023 17:08 5,4 C 5,0 C 1,7 C 94 % 1004,5 hPa 0,0 l/m 0 min 0 min 13 W/m 6,4 km/h (2 Bft) 97,14 %
24.02.2023 17:10 5,4 C 5,0 C 1,7 C 94 % 1004,5 hPa 0,0 l/m 0 min 0 min 16 W/m 12,9 km/h (3 Bft) 97,87 %
24.02.2023 17:12 5,5 C 5,0 C 1,7 C 94 % 1004,5 hPa 0,0 l/m 0 min 0 min 16 W/m 12,9 km/h (3 Bft) 97,87 %
24.02.2023 17:14 5,5 C 5,0 C 1,7 C 94 % 1004,5 hPa 0,0 l/m 0 min 0 min 20 W/m 12,9 km/h (3 Bft) 97,87 %
24.02.2023 17:16 5,6 C 5,0 C 1,7 C 94 % 1004,5 hPa 0,0 l/m 0 min 0 min 29 W/m 19,3 km/h (3 Bft) 97,87 %
24.02.2023 17:18 5,6 C 5,0 C 1,7 C 94 % 1004,5 hPa 0,0 l/m 0 min 0 min 28 W/m 12,9 km/h (3 Bft) 97,83 %
24.02.2023 17:20 5,6 C 5,0 C 1,7 C 94 % 1004,4 hPa 0,0 l/m 0 min 0 min 23 W/m 16,1 km/h (3 Bft) 95,74 %
24.02.2023 17:22 5,6 C 5,0 C 1,7 C 94 % 1004,5 hPa 0,0 l/m 0 min 0 min 19 W/m 16,1 km/h (3 Bft) 97,87 %
24.02.2023 17:24 5,6 C 5,0 C 2,2 C 94 % 1004,5 hPa 0,0 l/m 0 min 0 min 16 W/m 16,1 km/h (3 Bft) 97,87 %
24.02.2023 17:26 5,7 C 5,0 C 2,2 C 94 % 1004,4 hPa 0,0 l/m 0 min 2 min 12 W/m 16,1 km/h (3 Bft) 97,87 %
24.02.2023 17:28 5,7 C 5,0 C 2,2 C 94 % 1004,4 hPa 0,0 l/m 0 min 2 min 11 W/m 19,3 km/h (3 Bft) 97,87 %
24.02.2023 17:30 5,7 C 5,0 C 2,2 C 94 % 1004,3 hPa 0,0 l/m 0 min 2 min 9 W/m 25,7 km/h (4 Bft) 100,00 %
24.02.2023 17:32 5,7 C 5,0 C 2,2 C 94 % 1004,3 hPa 0,0 l/m 0 min 2 min 7 W/m 16,1 km/h (3 Bft) 100,00 %
24.02.2023 17:34 5,7 C 5,0 C 1,7 C 94 % 1004,4 hPa 0,0 l/m 0 min 2 min 5 W/m 19,3 km/h (3 Bft) 97,87 %
24.02.2023 17:36 5,7 C 5,0 C 1,7 C 94 % 1004,6 hPa 0,0 l/m 0 min 2 min 0 W/m 19,3 km/h (3 Bft) 100,00 %
24.02.2023 17:38 5,7 C 5,0 C 1,7 C 94 % 1004,6 hPa 0,0 l/m 0 min 2 min 0 W/m 22,5 km/h (4 Bft) 100,00 %
24.02.2023 17:40 5,7 C 5,0 C 1,7 C 95 % 1004,7 hPa 0,0 l/m 0 min 2 min 0 W/m 16,1 km/h (3 Bft) 100,00 %
24.02.2023 17:42 5,7 C 5,0 C 2,2 C 95 % 1004,8 hPa 0,0 l/m 0 min 2 min 0 W/m 16,1 km/h (3 Bft) 100,00 %
24.02.2023 17:44 5,7 C 5,0 C 1,7 C 95 % 1004,8 hPa 0,0 l/m 0 min 2 min 0 W/m 16,1 km/h (3 Bft) 100,00 %
24.02.2023 17:46 5,7 C 5,0 C 1,7 C 95 % 1004,8 hPa 0,2 l/m 0 min 2 min 5 W/m 16,1 km/h (3 Bft) 100,00 %
24.02.2023 17:48 5,7 C 5,0 C 1,7 C 95 % 1004,9 hPa 0,0 l/m 0 min 0 min 6 W/m 19,3 km/h (3 Bft) 100,00 %
24.02.2023 17:50 5,7 C 5,0 C 1,7 C 95 % 1004,8 hPa 0,0 l/m 0 min 0 min 5 W/m 19,3 km/h (3 Bft) 100,00 %
24.02.2023 17:52 5,7 C 5,0 C 1,7 C 95 % 1004,7 hPa 0,0 l/m 0 min 0 min 6 W/m 16,1 km/h (3 Bft) 95,74 %
24.02.2023 17:54 5,7 C 5,0 C 1,7 C 95 % 1004,8 hPa 0,0 l/m 0 min 0 min 6 W/m 19,3 km/h (3 Bft) 100,00 %
24.02.2023 17:56 5,7 C 5,0 C 1,7 C 95 % 1004,8 hPa 0,0 l/m 0 min 0 min 1 W/m 16,1 km/h (3 Bft) 100,00 %
24.02.2023 17:58 5,6 C 5,0 C 1,7 C 95 % 1004,8 hPa 0,0 l/m 0 min 0 min 0 W/m 16,1 km/h (3 Bft) 100,00 %
24.02.2023 18:00 5,6 C 5,0 C 1,7 C 95 % 1004,8 hPa 0,0 l/m 0 min 0 min 0 W/m 12,9 km/h (3 Bft) 100,00 %
24.02.2023 18:02 5,7 C 5,0 C 1,7 C 95 % 1004,8 hPa 0,0 l/m 0 min 0 min 0 W/m 12,9 km/h (3 Bft) 100,00 %
24.02.2023 18:04 5,7 C 5,0 C 2,2 C 95 % 1004,8 hPa 0,0 l/m 0 min 0 min 0 W/m 16,1 km/h (3 Bft) 100,00 %
24.02.2023 18:07 5,7 C 5,0 C 1,7 C 95 % 1004,9 hPa 0,0 l/m 0 min 0 min 0 W/m 16,1 km/h (3 Bft) 100,00 %
24.02.2023 18:08 5,7 C 5,0 C 1,7 C 95 % 1004,9 hPa 0,0 l/m 0 min 0 min 0 W/m 9,7 km/h (2 Bft) 100,00 %
24.02.2023 18:12 5,7 C 5,0 C 1,7 C 95 % 1004,8 hPa 0,0 l/m 0 min 0 min 0 W/m 6,4 km/h (2 Bft) 100,00 %
24.02.2023 18:14 5,7 C 5,0 C 1,7 C 95 % 1004,9 hPa 0,0 l/m 0 min 0 min 0 W/m 12,9 km/h (3 Bft) 97,87 %
24.02.2023 18:16 5,7 C 5,0 C 1,7 C 95 % 1004,9 hPa 0,0 l/m 0 min 0 min 0 W/m 12,9 km/h (3 Bft) 100,00 %
24.02.2023 18:18 5,6 C 5,0 C 1,7 C 95 % 1004,9 hPa 0,0 l/m 0 min 0 min 0 W/m 9,7 km/h (2 Bft) 97,83 %
24.02.2023 18:20 5,6 C 5,0 C 1,7 C 95 % 1004,8 hPa 0,0 l/m 0 min 0 min 0 W/m 9,7 km/h (2 Bft) 95,74 %
24.02.2023 18:22 5,6 C 5,0 C 1,7 C 95 % 1004,7 hPa 0,0 l/m 0 min 0 min 0 W/m 9,7 km/h (2 Bft) 95,74 %
24.02.2023 18:24 5,6 C 5,0 C 1,7 C 95 % 1004,7 hPa 0,0 l/m 0 min 0 min 0 W/m 12,9 km/h (3 Bft) 97,87 %
24.02.2023 18:26 5,6 C 5,0 C 1,7 C 95 % 1004,6 hPa 0,0 l/m 0 min 0 min 0 W/m 3,2 km/h (1 Bft) 100,00 %
24.02.2023 18:28 5,6 C 5,0 C 1,7 C 95 % 1004,7 hPa 0,0 l/m 0 min 0 min 0 W/m 6,4 km/h (2 Bft) 100,00 %
24.02.2023 18:30 5,6 C 5,0 C 1,7 C 95 % 1004,7 hPa 0,0 l/m 0 min 0 min 0 W/m 6,4 km/h (2 Bft) 95,74 %
24.02.2023 18:32 5,6 C 5,0 C 2,2 C 95 % 1004,8 hPa 0,0 l/m 0 min 0 min 0 W/m 9,7 km/h (2 Bft) 95,74 %
24.02.2023 18:34 5,6 C 5,0 C 1,7 C 95 % 1004,8 hPa 0,0 l/m 0 min 0 min 0 W/m 12,9 km/h (3 Bft) 97,87 %
24.02.2023 18:36 5,6 C 5,0 C 2,2 C 95 % 1004,9 hPa 0,0 l/m 0 min 0 min 0 W/m 9,7 km/h (2 Bft) 95,74 %
24.02.2023 18:38 5,7 C 5,0 C 2,2 C 95 % 1005,0 hPa 0,0 l/m 0 min 0 min 0 W/m 9,7 km/h (2 Bft) 93,62 %
24.02.2023 18:40 5,7 C 5,0 C 2,2 C 95 % 1004,9 hPa 0,0 l/m 0 min 0 min 0 W/m 6,4 km/h (2 Bft) 95,74 %
24.02.2023 18:42 5,7 C 5,0 C 2,2 C 95 % 1005,0 hPa 0,0 l/m 0 min 0 min 0 W/m 6,4 km/h (2 Bft) 95,65 %
24.02.2023 18:44 5,7 C 5,0 C 2,2 C 95 % 1005,0 hPa 0,0 l/m 0 min 0 min 0 W/m 9,7 km/h (2 Bft) 93,62 %
24.02.2023 18:46 5,7 C 5,0 C 2,2 C 95 % 1005,0 hPa 0,0 l/m 0 min 0 min 0 W/m 6,4 km/h (2 Bft) 93,62 %
24.02.2023 18:48 5,7 C 5,0 C 2,2 C 95 % 1004,9 hPa 0,0 l/m 0 min 0 min 0 W/m 6,4 km/h (2 Bft) 93,62 %
24.02.2023 18:50 5,7 C 5,6 C 2,2 C 95 % 1004,9 hPa 0,0 l/m 0 min 0 min 0 W/m 6,4 km/h (2 Bft) 91,49 %
24.02.2023 18:52 5,8 C 5,6 C 2,2 C 95 % 1005,0 hPa 0,0 l/m 0 min 0 min 0 W/m 12,9 km/h (3 Bft) 93,62 %
24.02.2023 18:54 5,8 C 5,6 C 2,2 C 95 % 1005,0 hPa 0,0 l/m 0 min 0 min 0 W/m 16,1 km/h (3 Bft) 93,48 %
24.02.2023 18:56 5,7 C 5,6 C 2,2 C 95 % 1005,1 hPa 0,0 l/m 0 min 0 min 0 W/m 12,9 km/h (3 Bft) 89,36 %
24.02.2023 18:58 5,7 C 5,6 C 2,2 C 95 % 1005,1 hPa 0,0 l/m 0 min 0 min 0 W/m 19,3 km/h (3 Bft) 93,62 %
24.02.2023 19:00 5,7 C 5,0 C 2,2 C 95 % 1005,1 hPa 0,0 l/m 0 min 0 min 0 W/m 16,1 km/h (3 Bft) 89,36 %
24.02.2023 19:02 5,7 C 5,0 C 2,2 C 95 % 1005,1 hPa 0,0 l/m 0 min 0 min 0 W/m 16,1 km/h (3 Bft) 91,43 %
24.02.2023 19:04 5,7 C 5,0 C 2,2 C 95 % 1005,2 hPa 0,0 l/m 0 min 0 min 0 W/m 12,9 km/h (3 Bft) 93,75 %
24.02.2023 19:06 5,7 C 5,0 C 1,7 C 95 % 1005,2 hPa 0,0 l/m 0 min 0 min 0 W/m 16,1 km/h (3 Bft) 87,93 %
24.02.2023 19:08 5,7 C 5,0 C 2,2 C 95 % 1005,2 hPa 0,0 l/m 0 min 0 min 0 W/m 12,9 km/h (3 Bft) 92,86 %
24.02.2023 19:10 5,7 C 5,0 C 1,7 C 95 % 1005,2 hPa 0,0 l/m 0 min 0 min 0 W/m 12,9 km/h (3 Bft) 95,65 %
24.02.2023 19:12 5,7 C 5,0 C 2,2 C 94 % 1005,2 hPa 0,0 l/m 0 min 0 min 0 W/m 9,7 km/h (2 Bft) 95,12 %
24.02.2023 19:14 5,7 C 5,0 C 2,2 C 94 % 1005,2 hPa 0,0 l/m 0 min 0 min 0 W/m 6,4 km/h (2 Bft) 97,87 %
24.02.2023 19:16 5,7 C 5,0 C 2,2 C 94 % 1005,3 hPa 0,0 l/m 0 min 2 min 0 W/m 9,7 km/h (2 Bft) 97,87 %
24.02.2023 19:18 5,7 C 5,0 C 1,7 C 94 % 1005,4 hPa 0,0 l/m 0 min 0 min 0 W/m 9,7 km/h (2 Bft) 95,74 %
24.02.2023 19:20 5,7 C 5,0 C 1,7 C 94 % 1005,4 hPa 0,0 l/m 0 min 0 min 0 W/m 9,7 km/h (2 Bft) 96,30 %
24.02.2023 19:22 5,7 C 5,0 C 2,2 C 94 % 1005,4 hPa 0,0 l/m 0 min 2 min 0 W/m 3,2 km/h (1 Bft) 97,83 %
24.02.2023 19:24 5,7 C 5,0 C 2,2 C 94 % 1005,5 hPa 0,0 l/m 0 min 2 min 0 W/m 9,7 km/h (2 Bft) 97,87 %
24.02.2023 19:26 5,7 C 5,0 C 1,7 C 94 % 1005,5 hPa 0,2 l/m 0 min 2 min 0 W/m 25,7 km/h (4 Bft) 95,83 %
24.02.2023 19:28 5,7 C 5,0 C 1,7 C 94 % 1005,5 hPa 0,0 l/m 0 min 2 min 0 W/m 19,3 km/h (3 Bft) 97,87 %
24.02.2023 19:30 5,6 C 5,0 C 1,7 C 94 % 1005,4 hPa 0,2 l/m 0 min 2 min 0 W/m 16,1 km/h (3 Bft) 97,87 %
24.02.2023 19:32 5,6 C 5,0 C 1,7 C 94 % 1005,4 hPa 0,0 l/m 0 min 2 min 0 W/m 19,3 km/h (3 Bft) 93,62 %
24.02.2023 19:34 5,6 C 5,0 C 1,7 C 94 % 1005,4 hPa 0,0 l/m 0 min 0 min 0 W/m 19,3 km/h (3 Bft) 97,83 %
24.02.2023 19:36 5,4 C 5,0 C 1,7 C 94 % 1005,5 hPa 0,0 l/m 0 min 0 min 0 W/m 29,0 km/h (5 Bft) 97,87 %
24.02.2023 19:38 5,4 C 4,4 C 1,7 C 94 % 1005,5 hPa 0,0 l/m 0 min 2 min 0 W/m 22,5 km/h (4 Bft) 97,87 %
24.02.2023 19:40 5,4 C 4,4 C 1,7 C 94 % 1005,5 hPa 0,0 l/m 0 min 0 min 0 W/m 22,5 km/h (4 Bft) 98,00 %
24.02.2023 19:42 5,3 C 4,4 C 1,7 C 94 % 1005,4 hPa 0,0 l/m 0 min 0 min 0 W/m 19,3 km/h (3 Bft) 100,00 %
24.02.2023 19:44 5,2 C 4,4 C 1,1 C 94 % 1005,4 hPa 0,0 l/m 0 min 0 min 0 W/m 16,1 km/h (3 Bft) 100,00 %
24.02.2023 19:46 5,2 C 4,4 C 1,7 C 94 % 1005,5 hPa 0,0 l/m 0 min 0 min 0 W/m 12,9 km/h (3 Bft) 100,00 %
24.02.2023 19:48 5,1 C 4,4 C 1,7 C 94 % 1005,6 hPa 0,0 l/m 0 min 0 min 0 W/m 25,7 km/h (4 Bft) 97,83 %
24.02.2023 19:50 5,1 C 4,4 C 1,7 C 94 % 1005,5 hPa 0,0 l/m 0 min 0 min 0 W/m 9,7 km/h (2 Bft) 97,87 %
24.02.2023 19:52 5,1 C 4,4 C 1,7 C 94 % 1005,5 hPa 0,0 l/m 0 min 0 min 0 W/m 12,9 km/h (3 Bft) 100,00 %
24.02.2023 19:54 5,1 C 4,4 C 1,7 C 94 % 1005,5 hPa 0,0 l/m 0 min 0 min 0 W/m 12,9 km/h (3 Bft) 100,00 %
24.02.2023 19:56 5,1 C 4,4 C 1,7 C 94 % 1005,6 hPa 0,0 l/m 0 min 0 min 0 W/m 16,1 km/h (3 Bft) 97,87 %
24.02.2023 19:58 5,1 C 4,4 C 1,7 C 94 % 1005,6 hPa 0,0 l/m 0 min 0 min 0 W/m 12,9 km/h (3 Bft) 100,00 %
24.02.2023 20:00 5,0 C 4,4 C 1,7 C 94 % 1005,6 hPa 0,0 l/m 0 min 0 min 0 W/m 12,9 km/h (3 Bft) 100,00 %
24.02.2023 20:02 5,0 C 4,4 C 1,7 C 94 % 1005,6 hPa 0,0 l/m 0 min 0 min 0 W/m 9,7 km/h (2 Bft) 100,00 %
24.02.2023 20:04 5,0 C 4,4 C 1,7 C 94 % 1005,7 hPa 0,0 l/m 0 min 0 min 0 W/m 16,1 km/h (3 Bft) 100,00 %
24.02.2023 20:06 5,0 C 4,4 C 1,7 C 94 % 1005,7 hPa 0,0 l/m 0 min 0 min 0 W/m 16,1 km/h (3 Bft) 100,00 %
24.02.2023 20:08 4,9 C 4,4 C 1,1 C 94 % 1005,7 hPa 0,0 l/m 0 min 0 min 0 W/m 9,7 km/h (2 Bft) 100,00 %
24.02.2023 20:10 4,9 C 4,4 C 1,1 C 94 % 1005,7 hPa 0,0 l/m 0 min 0 min 0 W/m 12,9 km/h (3 Bft) 100,00 %
24.02.2023 20:12 4,9 C 4,4 C 1,1 C 94 % 1005,7 hPa 0,0 l/m 0 min 0 min 0 W/m 19,3 km/h (3 Bft) 97,83 %
24.02.2023 20:14 4,8 C 4,4 C 1,1 C 94 % 1005,7 hPa 0,0 l/m 0 min 0 min 0 W/m 16,1 km/h (3 Bft) 100,00 %
24.02.2023 20:16 4,8 C 4,4 C 1,1 C 94 % 1005,7 hPa 0,0 l/m 0 min 0 min 0 W/m 16,1 km/h (3 Bft) 97,87 %
24.02.2023 20:18 4,8 C 4,4 C 1,1 C 94 % 1005,7 hPa 0,0 l/m 0 min 0 min 0 W/m 16,1 km/h (3 Bft) 100,00 %
24.02.2023 20:20 4,8 C 4,4 C 1,1 C 94 % 1005,7 hPa 0,0 l/m 0 min 0 min 0 W/m 16,1 km/h (3 Bft) 97,92 %
24.02.2023 20:22 4,8 C 4,4 C 1,1 C 94 % 1005,7 hPa 0,0 l/m 0 min 0 min 0 W/m 22,5 km/h (4 Bft) 100,00 %
24.02.2023 20:24 4,7 C 4,4 C 1,1 C 94 % 1005,7 hPa 0,0 l/m 0 min 2 min 0 W/m 29,0 km/h (5 Bft) 100,00 %
24.02.2023 20:26 4,7 C 4,4 C 1,1 C 94 % 1005,7 hPa 0,0 l/m 0 min 2 min 0 W/m 19,3 km/h (3 Bft) 97,87 %
24.02.2023 20:28 4,7 C 4,4 C 1,1 C 94 % 1005,7 hPa 0,0 l/m 0 min 2 min 0 W/m 16,1 km/h (3 Bft) 97,83 %
24.02.2023 20:30 4,7 C 4,4 C 1,1 C 94 % 1005,8 hPa 0,0 l/m 0 min 2 min 0 W/m 22,5 km/h (4 Bft) 93,62 %
24.02.2023 20:32 4,7 C 4,4 C 1,1 C 94 % 1005,8 hPa 0,0 l/m 0 min 0 min 0 W/m 29,0 km/h (5 Bft) 97,87 %
24.02.2023 20:34 4,7 C 4,4 C 1,1 C 94 % 1005,8 hPa 0,0 l/m 0 min 0 min 0 W/m 16,1 km/h (3 Bft) 97,87 %
24.02.2023 20:36 4,7 C 3,9 C 1,1 C 94 % 1005,7 hPa 0,0 l/m 0 min 0 min 0 W/m 12,9 km/h (3 Bft) 97,87 %
24.02.2023 20:38 4,7 C 4,4 C 1,1 C 94 % 1005,8 hPa 0,0 l/m 0 min 0 min 0 W/m 19,3 km/h (3 Bft) 97,87 %
24.02.2023 20:40 4,7 C 4,4 C 1,1 C 94 % 1005,8 hPa 0,0 l/m 0 min 0 min 0 W/m 29,0 km/h (5 Bft) 95,65 %
24.02.2023 20:42 4,7 C 4,4 C 1,1 C 94 % 1005,8 hPa 0,0 l/m 0 min 0 min 0 W/m 22,5 km/h (4 Bft) 95,74 %
24.02.2023 20:44 4,7 C 4,4 C 1,1 C 94 % 1005,8 hPa 0,0 l/m 0 min 0 min 0 W/m 19,3 km/h (3 Bft) 96,30 %
24.02.2023 20:46 4,7 C 4,4 C 1,1 C 94 % 1005,8 hPa 0,0 l/m 0 min 0 min 0 W/m 16,1 km/h (3 Bft) 93,88 %
24.02.2023 20:48 4,7 C 4,4 C 1,1 C 94 % 1005,9 hPa 0,0 l/m 0 min 0 min 0 W/m 19,3 km/h (3 Bft) 97,87 %
24.02.2023 20:50 4,7 C 3,9 C 1,1 C 94 % 1005,9 hPa 0,0 l/m 0 min 0 min 0 W/m 16,1 km/h (3 Bft) 93,48 %
24.02.2023 20:52 4,7 C 3,9 C 1,1 C 94 % 1005,9 hPa 0,0 l/m 0 min 0 min 0 W/m 22,5 km/h (4 Bft) 97,87 %
24.02.2023 20:54 4,6 C 3,9 C 1,1 C 94 % 1005,9 hPa 0,0 l/m 0 min 0 min 0 W/m 16,1 km/h (3 Bft) 97,37 %
24.02.2023 20:56 4,6 C 3,9 C 1,1 C 94 % 1006,0 hPa 0,0 l/m 0 min 0 min 0 W/m 16,1 km/h (3 Bft) 95,74 %
24.02.2023 20:58 4,6 C 3,9 C 1,1 C 94 % 1006,0 hPa 0,0 l/m 0 min 0 min 0 W/m 19,3 km/h (3 Bft) 97,92 %
24.02.2023 21:00 4,6 C 3,9 C 1,1 C 94 % 1006,0 hPa 0,0 l/m 0 min 0 min 0 W/m 19,3 km/h (3 Bft) 95,74 %
24.02.2023 21:02 4,6 C 3,9 C 1,1 C 94 % 1006,0 hPa 0,0 l/m 0 min 0 min 0 W/m 19,3 km/h (3 Bft) 95,74 %
24.02.2023 21:04 4,6 C 3,9 C 1,1 C 94 % 1005,9 hPa 0,0 l/m 0 min 0 min 0 W/m 16,1 km/h (3 Bft) 97,96 %
24.02.2023 21:06 4,6 C 3,9 C 1,1 C 94 % 1006,0 hPa 0,0 l/m 0 min 0 min 0 W/m 16,1 km/h (3 Bft) 95,74 %
24.02.2023 21:08 4,5 C 3,9 C 1,1 C 94 % 1006,0 hPa 0,0 l/m 0 min 0 min 0 W/m 19,3 km/h (3 Bft) 95,74 %
24.02.2023 21:10 4,5 C 3,9 C 1,1 C 94 % 1006,1 hPa 0,0 l/m 0 min 0 min 0 W/m 16,1 km/h (3 Bft) 97,87 %
24.02.2023 21:12 4,5 C 3,9 C 1,1 C 94 % 1006,1 hPa 0,0 l/m 0 min 0 min 0 W/m 19,3 km/h (3 Bft) 97,87 %
24.02.2023 21:14 4,5 C 3,9 C 1,1 C 94 % 1006,1 hPa 0,0 l/m 0 min 0 min 0 W/m 12,9 km/h (3 Bft) 97,87 %
24.02.2023 21:16 4,5 C 3,9 C 1,1 C 94 % 1006,0 hPa 0,0 l/m 0 min 0 min 0 W/m 12,9 km/h (3 Bft) 95,74 %
24.02.2023 21:18 4,5 C 3,9 C 1,1 C 94 % 1006,1 hPa 0,0 l/m 0 min 0 min 0 W/m 12,9 km/h (3 Bft) 95,65 %
24.02.2023 21:20 4,5 C 3,9 C 1,1 C 94 % 1006,1 hPa 0,0 l/m 0 min 0 min 0 W/m 9,7 km/h (2 Bft) 93,62 %
24.02.2023 21:22 4,5 C 3,9 C 1,1 C 94 % 1006,1 hPa 0,0 l/m 0 min 0 min 0 W/m 12,9 km/h (3 Bft) 95,74 %
24.02.2023 21:24 4,5 C 3,9 C 1,1 C 94 % 1006,1 hPa 0,0 l/m 0 min 0 min 0 W/m 12,9 km/h (3 Bft) 93,62 %
24.02.2023 21:26 4,5 C 3,9 C 1,1 C 94 % 1006,1 hPa 0,0 l/m 0 min 0 min 0 W/m 16,1 km/h (3 Bft) 93,62 %
24.02.2023 21:28 4,5 C 3,9 C 1,1 C 94 % 1006,1 hPa 0,0 l/m 0 min 0 min 0 W/m 9,7 km/h (2 Bft) 95,83 %
24.02.2023 21:30 4,5 C 3,9 C 1,1 C 94 % 1006,1 hPa 0,0 l/m 0 min 0 min 0 W/m 19,3 km/h (3 Bft) 97,87 %
24.02.2023 21:32 4,5 C 3,9 C 1,1 C 94 % 1006,2 hPa 0,0 l/m 0 min 0 min 0 W/m 9,7 km/h (2 Bft) 95,65 %
24.02.2023 21:34 4,6 C 3,9 C 1,1 C 94 % 1006,2 hPa 0,0 l/m 0 min 0 min 0 W/m 16,1 km/h (3 Bft) 93,62 %
24.02.2023 21:36 4,6 C 3,9 C 1,1 C 94 % 1006,2 hPa 0,0 l/m 0 min 0 min 0 W/m 19,3 km/h (3 Bft) 98,11 %
24.02.2023 21:38 4,6 C 3,9 C 1,1 C 94 % 1006,2 hPa 0,0 l/m 0 min 0 min 0 W/m 9,7 km/h (2 Bft) 100,00 %
24.02.2023 21:40 4,6 C 3,9 C 1,1 C 94 % 1006,3 hPa 0,0 l/m 0 min 0 min 0 W/m 16,1 km/h (3 Bft) 100,00 %
24.02.2023 21:42 4,6 C 3,9 C 1,1 C 94 % 1006,3 hPa 0,0 l/m 0 min 0 min 0 W/m 9,7 km/h (2 Bft) 100,00 %
24.02.2023 21:44 4,6 C 3,9 C 1,1 C 94 % 1006,3 hPa 0,0 l/m 0 min 0 min 0 W/m 9,7 km/h (2 Bft) 97,83 %
24.02.2023 21:46 4,6 C 3,9 C 1,1 C 94 % 1006,2 hPa 0,0 l/m 0 min 0 min 0 W/m 12,9 km/h (3 Bft) 95,74 %
24.02.2023 21:48 4,6 C 3,9 C 1,1 C 94 % 1006,2 hPa 0,0 l/m 0 min 0 min 0 W/m 9,7 km/h (2 Bft) 100,00 %
24.02.2023 21:50 4,6 C 3,9 C 1,1 C 94 % 1006,3 hPa 0,0 l/m 0 min 0 min 0 W/m 12,9 km/h (3 Bft) 100,00 %
24.02.2023 21:52 4,6 C 3,9 C 1,1 C 94 % 1006,3 hPa 0,0 l/m 0 min 0 min 0 W/m 6,4 km/h (2 Bft) 100,00 %
24.02.2023 21:54 4,6 C 3,9 C 1,1 C 94 % 1006,3 hPa 0,0 l/m 0 min 0 min 0 W/m 6,4 km/h (2 Bft) 100,00 %
24.02.2023 21:56 4,6 C 3,9 C 1,1 C 94 % 1006,2 hPa 0,0 l/m 0 min 0 min 0 W/m 6,4 km/h (2 Bft) 100,00 %
24.02.2023 21:58 4,6 C 3,9 C 1,1 C 94 % 1006,3 hPa 0,0 l/m 0 min 0 min 0 W/m 12,9 km/h (3 Bft) 100,00 %
24.02.2023 22:00 4,5 C 3,9 C 1,1 C 94 % 1006,3 hPa 0,0 l/m 0 min 0 min 0 W/m 12,9 km/h (3 Bft) 100,00 %
24.02.2023 22:02 4,5 C 3,9 C 1,1 C 94 % 1006,3 hPa 0,0 l/m 0 min 0 min 0 W/m 12,9 km/h (3 Bft) 95,92 %
24.02.2023 22:04 4,5 C 3,9 C 1,1 C 94 % 1006,3 hPa 0,0 l/m 0 min 0 min 0 W/m 9,7 km/h (2 Bft) 100,00 %
24.02.2023 22:06 4,4 C 3,9 C 1,1 C 95 % 1006,4 hPa 0,0 l/m 0 min 0 min 0 W/m 9,7 km/h (2 Bft) 98,31 %
24.02.2023 22:08 4,4 C 3,9 C 1,1 C 95 % 1006,4 hPa 0,0 l/m 0 min 0 min 0 W/m 9,7 km/h (2 Bft) 97,83 %
24.02.2023 22:10 4,4 C 3,9 C 1,1 C 95 % 1006,4 hPa 0,0 l/m 0 min 0 min 0 W/m 9,7 km/h (2 Bft) 97,22 %
24.02.2023 22:12 4,3 C 3,3 C 1,1 C 94 % 1006,4 hPa 0,0 l/m 0 min 0 min 0 W/m 16,1 km/h (3 Bft) 97,87 %
24.02.2023 22:14 4,3 C 3,3 C 1,1 C 94 % 1006,4 hPa 0,0 l/m 0 min 0 min 0 W/m 9,7 km/h (2 Bft) 97,92 %
24.02.2023 22:16 4,3 C 3,3 C 1,1 C 94 % 1006,4 hPa 0,0 l/m 0 min 0 min 0 W/m 12,9 km/h (3 Bft) 93,62 %
24.02.2023 22:18 4,2 C 3,3 C 1,1 C 94 % 1006,4 hPa 0,0 l/m 0 min 0 min 0 W/m 9,7 km/h (2 Bft) 95,74 %
24.02.2023 22:20 4,2 C 3,3 C 1,1 C 94 % 1006,4 hPa 0,0 l/m 0 min 0 min 0 W/m 12,9 km/h (3 Bft) 95,74 %
24.02.2023 22:22 4,2 C 3,3 C 1,1 C 94 % 1006,4 hPa 0,0 l/m 0 min 0 min 0 W/m 12,9 km/h (3 Bft) 93,62 %
24.02.2023 22:24 4,1 C 3,3 C 1,1 C 94 % 1006,4 hPa 0,0 l/m 0 min 0 min 0 W/m 9,7 km/h (2 Bft) 95,65 %
24.02.2023 22:26 4,1 C 3,3 C 1,1 C 94 % 1006,4 hPa 0,0 l/m 0 min 0 min 0 W/m 16,1 km/h (3 Bft) 93,62 %
24.02.2023 22:28 4,1 C 3,3 C 1,1 C 94 % 1006,4 hPa 0,0 l/m 0 min 0 min 0 W/m 9,7 km/h (2 Bft) 95,74 %
24.02.2023 22:30 4,0 C 3,3 C 1,1 C 94 % 1006,5 hPa 0,0 l/m 0 min 0 min 0 W/m 9,7 km/h (2 Bft) 95,74 %
24.02.2023 22:32 4,0 C 3,3 C 1,1 C 94 % 1006,5 hPa 0,0 l/m 0 min 0 min 0 W/m 9,7 km/h (2 Bft) 95,74 %
24.02.2023 22:34 4,0 C 3,3 C 1,1 C 94 % 1006,4 hPa 0,0 l/m 0 min 0 min 0 W/m 6,4 km/h (2 Bft) 93,62 %
24.02.2023 22:36 3,9 C 3,3 C 1,1 C 94 % 1006,4 hPa 0,0 l/m 0 min 0 min 0 W/m 12,9 km/h (3 Bft) 97,83 %
24.02.2023 22:38 3,9 C 3,3 C 1,1 C 94 % 1006,4 hPa 0,0 l/m 0 min 0 min 0 W/m 16,1 km/h (3 Bft) 95,74 %
24.02.2023 22:40 3,9 C 3,3 C 1,1 C 94 % 1006,5 hPa 0,0 l/m 0 min 0 min 0 W/m 9,7 km/h (2 Bft) 95,74 %
24.02.2023 22:42 3,9 C 3,3 C 1,1 C 94 % 1006,5 hPa 0,0 l/m 0 min 0 min 0 W/m 16,1 km/h (3 Bft) 97,87 %
24.02.2023 22:44 3,9 C 3,3 C 1,1 C 94 % 1006,4 hPa 0,0 l/m 0 min 0 min 0 W/m 12,9 km/h (3 Bft) 95,74 %
24.02.2023 22:46 3,9 C 3,3 C 1,1 C 94 % 1006,5 hPa 0,0 l/m 0 min 0 min 0 W/m 19,3 km/h (3 Bft) 97,87 %
24.02.2023 22:48 3,9 C 3,3 C 1,1 C 94 % 1006,5 hPa 0,0 l/m 0 min 0 min 0 W/m 12,9 km/h (3 Bft) 97,87 %
24.02.2023 22:50 3,9 C 3,3 C 1,1 C 94 % 1006,5 hPa 0,0 l/m 0 min 0 min 0 W/m 9,7 km/h (2 Bft) 97,87 %
24.02.2023 22:52 3,9 C 3,3 C 1,1 C 94 % 1006,5 hPa 0,0 l/m 0 min 0 min 0 W/m 9,7 km/h (2 Bft) 97,87 %
24.02.2023 22:54 3,9 C 3,3 C 1,1 C 94 % 1006,5 hPa 0,0 l/m 0 min 0 min 0 W/m 9,7 km/h (2 Bft) 97,87 %
24.02.2023 22:56 3,9 C 3,3 C 1,1 C 94 % 1006,6 hPa 0,0 l/m 0 min 0 min 0 W/m 16,1 km/h (3 Bft) 93,62 %
24.02.2023 22:58 3,8 C 3,3 C 1,1 C 94 % 1006,6 hPa 0,0 l/m 0 min 0 min 0 W/m 12,9 km/h (3 Bft) 97,87 %
24.02.2023 23:00 3,9 C 3,3 C 1,1 C 94 % 1006,6 hPa 0,0 l/m 0 min 0 min 0 W/m 12,9 km/h (3 Bft) 95,74 %
24.02.2023 23:02 3,8 C 3,3 C 1,1 C 94 % 1006,6 hPa 0,0 l/m 0 min 0 min 0 W/m 16,1 km/h (3 Bft) 97,83 %
24.02.2023 23:04 3,8 C 3,3 C 1,1 C 94 % 1006,6 hPa 0,0 l/m 0 min 0 min 0 W/m 12,9 km/h (3 Bft) 97,87 %
24.02.2023 23:06 3,8 C 3,3 C 1,1 C 94 % 1006,7 hPa 0,0 l/m 0 min 0 min 0 W/m 9,7 km/h (2 Bft) 97,87 %
24.02.2023 23:08 3,8 C 3,3 C 1,1 C 94 % 1006,7 hPa 0,0 l/m 0 min 0 min 0 W/m 22,5 km/h (4 Bft) 95,74 %
24.02.2023 23:10 3,8 C 3,3 C 1,1 C 94 % 1006,6 hPa 0,0 l/m 0 min 0 min 0 W/m 16,1 km/h (3 Bft) 97,87 %
24.02.2023 23:12 3,9 C 3,3 C 1,1 C 94 % 1006,6 hPa 0,0 l/m 0 min 0 min 0 W/m 12,9 km/h (3 Bft) 97,87 %
24.02.2023 23:14 3,9 C 3,3 C 1,1 C 94 % 1006,6 hPa 0,0 l/m 0 min 0 min 0 W/m 16,1 km/h (3 Bft) 97,87 %
24.02.2023 23:16 3,9 C 3,3 C 1,1 C 94 % 1006,7 hPa 0,0 l/m 0 min 0 min 0 W/m 16,1 km/h (3 Bft) 95,65 %
24.02.2023 23:18 3,9 C 3,3 C 1,1 C 94 % 1006,7 hPa 0,0 l/m 0 min 0 min 0 W/m 12,9 km/h (3 Bft) 95,74 %
24.02.2023 23:20 3,9 C 3,3 C 1,1 C 94 % 1006,7 hPa 0,0 l/m 0 min 0 min 0 W/m 16,1 km/h (3 Bft) 97,87 %
24.02.2023 23:22 3,9 C 3,3 C 1,1 C 94 % 1006,8 hPa 0,0 l/m 0 min 0 min 0 W/m 12,9 km/h (3 Bft) 97,92 %
24.02.2023 23:24 3,9 C 3,3 C 1,1 C 94 % 1006,8 hPa 0,0 l/m 0 min 0 min 0 W/m 22,5 km/h (4 Bft) 97,87 %
24.02.2023 23:26 3,9 C 3,3 C 1,1 C 94 % 1006,7 hPa 0,0 l/m 0 min 0 min 0 W/m 12,9 km/h (3 Bft) 97,87 %
24.02.2023 23:28 3,9 C 3,3 C 1,1 C 94 % 1006,7 hPa 0,0 l/m 0 min 0 min 0 W/m 16,1 km/h (3 Bft) 97,87 %
24.02.2023 23:30 3,9 C 3,3 C 1,1 C 94 % 1006,7 hPa 0,0 l/m 0 min 0 min 0 W/m 22,5 km/h (4 Bft) 97,83 %
24.02.2023 23:32 3,9 C 3,3 C 1,1 C 94 % 1006,7 hPa 0,0 l/m 0 min 0 min 0 W/m 19,3 km/h (3 Bft) 95,74 %
24.02.2023 23:34 3,9 C 3,3 C 1,1 C 93 % 1006,7 hPa 0,0 l/m 0 min 0 min 0 W/m 16,1 km/h (3 Bft) 97,87 %
24.02.2023 23:36 3,9 C 3,3 C 1,1 C 93 % 1006,7 hPa 0,0 l/m 0 min 0 min 0 W/m 12,9 km/h (3 Bft) 97,87 %
24.02.2023 23:38 3,9 C 3,3 C 1,1 C 93 % 1006,8 hPa 0,0 l/m 0 min 0 min 0 W/m 12,9 km/h (3 Bft) 97,87 %
24.02.2023 23:40 3,9 C 3,3 C 1,1 C 93 % 1006,8 hPa 0,0 l/m 0 min 0 min 0 W/m 12,9 km/h (3 Bft) 76,60 %
24.02.2023 23:42 3,9 C 3,3 C 1,1 C 93 % 1006,7 hPa 0,0 l/m 0 min 0 min 0 W/m 16,1 km/h (3 Bft) 73,81 %
24.02.2023 23:44 3,9 C 3,3 C 1,1 C 93 % 1006,6 hPa 0,0 l/m 0 min 0 min 0 W/m 16,1 km/h (3 Bft) 97,87 %
24.02.2023 23:46 3,9 C 3,3 C 1,1 C 93 % 1006,7 hPa 0,0 l/m 0 min 0 min 0 W/m 19,3 km/h (3 Bft) 95,74 %
24.02.2023 23:48 3,9 C 3,3 C 1,1 C 93 % 1006,7 hPa 0,0 l/m 0 min 0 min 0 W/m 12,9 km/h (3 Bft) 95,74 %
24.02.2023 23:50 3,9 C 3,3 C 1,1 C 93 % 1006,7 hPa 0,0 l/m 0 min 0 min 0 W/m 16,1 km/h (3 Bft) 95,45 %
24.02.2023 23:52 3,9 C 3,3 C 1,1 C 93 % 1006,7 hPa 0,0 l/m 0 min 0 min 0 W/m 6,4 km/h (2 Bft) 96,00 %
24.02.2023 23:54 3,9 C 3,3 C 1,1 C 93 % 1006,8 hPa 0,0 l/m 0 min 0 min 0 W/m 12,9 km/h (3 Bft) 95,92 %
24.02.2023 23:56 3,9 C 3,3 C 1,1 C 93 % 1006,8 hPa 0,0 l/m 0 min 0 min 0 W/m 16,1 km/h (3 Bft) 97,87 %
24.02.2023 23:58 3,9 C 3,3 C 1,1 C 92 % 1006,8 hPa 0,0 l/m 0 min 0 min 0 W/m 9,7 km/h (2 Bft) 97,37 %
_ Min-Zeit 04:46 02:12 12:22 11:18 17:30 - - - - 01:44 00:02
Minimum _ 3,7 C 3,3 C 0,6 C 82 % 1004,3 hPa - - - - 0,0 km/h (0 Bft) 20,00 %
_ Max-Zeit 00:14 00:00 00:00 00:00 00:00 13:04 00:00 12:12 13:46 19:36 00:08
Maximum _ 5,8 C 5,6 C 2,8 C 96 % 1016,1 hPa 0,2 l/m 0 min 4 min 124 W/m 29,0 km/h
N (5 Bft)
100,00 %
Durchschnitt _ 4,6 C 4,1 C 1,4 C 93 % 1009,4 hPa #1,4 l/m #0 min. #4:16 h 65 W/m 10,8 km/h (2 Bft) 96,81 %
© 2023 W. Hausmann